<?xml version="1.0" encoding="UTF-8" standalone="no" ?>
<gpx xmlns="http://www.topografix.com/GPX/1/1" xmlns:xsi="http://www.w3.org/2001/XMLSchema-instance" xsi:schemaLocation="http://www.topografix.com/GPX/1/1 http://www.topografix.com/GPX/1/1/gpx.xsd" version="1.1" creator="VisuGPX - https://www.visugpx.com">
  <metadata>
    <name>RANDO LANGEAC REIHLAC VOLMADET 12 KM</name>
    <desc><![CDATA[RANDO LANGEAC REILHAC VOLMADET 12 KM..DEPART ARRIVEE ENTRE GARE ET PISCINE.REILHAC.MOULIN DE JOUMARD.VOLMADET.]]></desc>
  </metadata>
  <trk>
    <name><![CDATA[17-JAN-21 15:42:47]]></name>
    <extensions>
      <line xmlns="http://www.topografix.com/GPX/gpx_style/0/2">
        <color>0000FF</color>
        <width>4</width>
      </line>
    </extensions>
    <trkseg>
      <trkpt lat="45.10952" lon="3.48724">
        <ele>533.67</ele>
        <time>2021-01-17T11:25:34Z</time>
      </trkpt>
      <trkpt lat="45.10959" lon="3.48722">
        <ele>526.94</ele>
        <time>2021-01-17T11:25:37Z</time>
      </trkpt>
      <trkpt lat="45.10974" lon="3.48709">
        <ele>523.58</ele>
        <time>2021-01-17T11:25:51Z</time>
      </trkpt>
      <trkpt lat="45.1099" lon="3.48694">
        <ele>528.86</ele>
        <time>2021-01-17T11:26:08Z</time>
      </trkpt>
      <trkpt lat="45.11002" lon="3.4869">
        <ele>534.15</ele>
        <time>2021-01-17T11:26:24Z</time>
      </trkpt>
      <trkpt lat="45.11012" lon="3.48702">
        <ele>537.51</ele>
        <time>2021-01-17T11:26:40Z</time>
      </trkpt>
      <trkpt lat="45.11013" lon="3.48703">
        <ele>537.03</ele>
        <time>2021-01-17T11:26:42Z</time>
      </trkpt>
      <trkpt lat="45.11031" lon="3.48721">
        <ele>535.11</ele>
        <time>2021-01-17T11:27:02Z</time>
      </trkpt>
      <trkpt lat="45.11052" lon="3.48733">
        <ele>533.19</ele>
        <time>2021-01-17T11:27:20Z</time>
      </trkpt>
      <trkpt lat="45.11069" lon="3.48745">
        <ele>533.19</ele>
        <time>2021-01-17T11:27:37Z</time>
      </trkpt>
      <trkpt lat="45.1109" lon="3.48763">
        <ele>530.3</ele>
        <time>2021-01-17T11:27:57Z</time>
      </trkpt>
      <trkpt lat="45.11105" lon="3.48784">
        <ele>526.94</ele>
        <time>2021-01-17T11:28:17Z</time>
      </trkpt>
      <trkpt lat="45.11112" lon="3.48813">
        <ele>524.54</ele>
        <time>2021-01-17T11:28:36Z</time>
      </trkpt>
      <trkpt lat="45.11115" lon="3.48856">
        <ele>522.61</ele>
        <time>2021-01-17T11:28:55Z</time>
      </trkpt>
      <trkpt lat="45.11122" lon="3.48882">
        <ele>521.65</ele>
        <time>2021-01-17T11:29:13Z</time>
      </trkpt>
      <trkpt lat="45.11129" lon="3.48888">
        <ele>520.69</ele>
        <time>2021-01-17T11:29:19Z</time>
      </trkpt>
      <trkpt lat="45.11147" lon="3.48909">
        <ele>516.85</ele>
        <time>2021-01-17T11:29:35Z</time>
      </trkpt>
      <trkpt lat="45.11167" lon="3.48925">
        <ele>512.04</ele>
        <time>2021-01-17T11:29:52Z</time>
      </trkpt>
      <trkpt lat="45.11174" lon="3.48935">
        <ele>511.56</ele>
        <time>2021-01-17T11:30:06Z</time>
      </trkpt>
      <trkpt lat="45.1119" lon="3.48956">
        <ele>512.04</ele>
        <time>2021-01-17T11:30:26Z</time>
      </trkpt>
      <trkpt lat="45.11204" lon="3.48975">
        <ele>512.04</ele>
        <time>2021-01-17T11:30:43Z</time>
      </trkpt>
      <trkpt lat="45.11213" lon="3.48992">
        <ele>512.52</ele>
        <time>2021-01-17T11:30:53Z</time>
      </trkpt>
      <trkpt lat="45.11217" lon="3.49001">
        <ele>512.52</ele>
        <time>2021-01-17T11:30:59Z</time>
      </trkpt>
      <trkpt lat="45.11226" lon="3.4901">
        <ele>513.48</ele>
        <time>2021-01-17T11:31:12Z</time>
      </trkpt>
      <trkpt lat="45.11243" lon="3.49021">
        <ele>516.37</ele>
        <time>2021-01-17T11:31:28Z</time>
      </trkpt>
      <trkpt lat="45.11265" lon="3.49015">
        <ele>522.13</ele>
        <time>2021-01-17T11:31:49Z</time>
      </trkpt>
      <trkpt lat="45.11269" lon="3.49009">
        <ele>525.02</ele>
        <time>2021-01-17T11:32:06Z</time>
      </trkpt>
      <trkpt lat="45.11273" lon="3.48996">
        <ele>526.94</ele>
        <time>2021-01-17T11:32:22Z</time>
      </trkpt>
      <trkpt lat="45.11288" lon="3.48982">
        <ele>529.82</ele>
        <time>2021-01-17T11:32:39Z</time>
      </trkpt>
      <trkpt lat="45.113" lon="3.48971">
        <ele>533.19</ele>
        <time>2021-01-17T11:32:53Z</time>
      </trkpt>
      <trkpt lat="45.11309" lon="3.48963">
        <ele>538.48</ele>
        <time>2021-01-17T11:33:09Z</time>
      </trkpt>
      <trkpt lat="45.11322" lon="3.48953">
        <ele>544.72</ele>
        <time>2021-01-17T11:33:25Z</time>
      </trkpt>
      <trkpt lat="45.11331" lon="3.48942">
        <ele>549.05</ele>
        <time>2021-01-17T11:33:43Z</time>
      </trkpt>
      <trkpt lat="45.11337" lon="3.48934">
        <ele>554.82</ele>
        <time>2021-01-17T11:33:57Z</time>
      </trkpt>
      <trkpt lat="45.11338" lon="3.48934">
        <ele>554.82</ele>
        <time>2021-01-17T11:33:58Z</time>
      </trkpt>
      <trkpt lat="45.11343" lon="3.48931">
        <ele>555.78</ele>
        <time>2021-01-17T11:34:05Z</time>
      </trkpt>
      <trkpt lat="45.11351" lon="3.48924">
        <ele>557.22</ele>
        <time>2021-01-17T11:34:17Z</time>
      </trkpt>
      <trkpt lat="45.11352" lon="3.48923">
        <ele>557.22</ele>
        <time>2021-01-17T11:34:18Z</time>
      </trkpt>
      <trkpt lat="45.11364" lon="3.48912">
        <ele>558.18</ele>
        <time>2021-01-17T11:34:33Z</time>
      </trkpt>
      <trkpt lat="45.11372" lon="3.48907">
        <ele>562.03</ele>
        <time>2021-01-17T11:34:45Z</time>
      </trkpt>
      <trkpt lat="45.11375" lon="3.48903">
        <ele>564.43</ele>
        <time>2021-01-17T11:34:53Z</time>
      </trkpt>
      <trkpt lat="45.11379" lon="3.48897">
        <ele>567.32</ele>
        <time>2021-01-17T11:35:04Z</time>
      </trkpt>
      <trkpt lat="45.11379" lon="3.48896">
        <ele>567.8</ele>
        <time>2021-01-17T11:35:05Z</time>
      </trkpt>
      <trkpt lat="45.11382" lon="3.48893">
        <ele>569.72</ele>
        <time>2021-01-17T11:35:09Z</time>
      </trkpt>
      <trkpt lat="45.11389" lon="3.48887">
        <ele>572.6</ele>
        <time>2021-01-17T11:35:21Z</time>
      </trkpt>
      <trkpt lat="45.11389" lon="3.48887">
        <ele>573.08</ele>
        <time>2021-01-17T11:35:22Z</time>
      </trkpt>
      <trkpt lat="45.11398" lon="3.48878">
        <ele>576.45</ele>
        <time>2021-01-17T11:35:33Z</time>
      </trkpt>
      <trkpt lat="45.11405" lon="3.48875">
        <ele>579.81</ele>
        <time>2021-01-17T11:35:45Z</time>
      </trkpt>
      <trkpt lat="45.11413" lon="3.48867">
        <ele>582.22</ele>
        <time>2021-01-17T11:35:58Z</time>
      </trkpt>
      <trkpt lat="45.1142" lon="3.48853">
        <ele>585.58</ele>
        <time>2021-01-17T11:36:15Z</time>
      </trkpt>
      <trkpt lat="45.11433" lon="3.48842">
        <ele>589.43</ele>
        <time>2021-01-17T11:36:32Z</time>
      </trkpt>
      <trkpt lat="45.11444" lon="3.48844">
        <ele>589.91</ele>
        <time>2021-01-17T11:36:43Z</time>
      </trkpt>
      <trkpt lat="45.1145" lon="3.4885">
        <ele>588.46</ele>
        <time>2021-01-17T11:36:59Z</time>
      </trkpt>
      <trkpt lat="45.11451" lon="3.48851">
        <ele>588.46</ele>
        <time>2021-01-17T11:37:16Z</time>
      </trkpt>
      <trkpt lat="45.11451" lon="3.48854">
        <ele>587.98</ele>
        <time>2021-01-17T11:37:28Z</time>
      </trkpt>
      <trkpt lat="45.11448" lon="3.48864">
        <ele>587.98</ele>
        <time>2021-01-17T11:37:40Z</time>
      </trkpt>
      <trkpt lat="45.11452" lon="3.48878">
        <ele>584.62</ele>
        <time>2021-01-17T11:37:53Z</time>
      </trkpt>
      <trkpt lat="45.11458" lon="3.48888">
        <ele>580.29</ele>
        <time>2021-01-17T11:38:02Z</time>
      </trkpt>
      <trkpt lat="45.11465" lon="3.48889">
        <ele>578.37</ele>
        <time>2021-01-17T11:38:15Z</time>
      </trkpt>
      <trkpt lat="45.11469" lon="3.4889">
        <ele>575.49</ele>
        <time>2021-01-17T11:38:35Z</time>
      </trkpt>
      <trkpt lat="45.11476" lon="3.48894">
        <ele>575.01</ele>
        <time>2021-01-17T11:38:52Z</time>
      </trkpt>
      <trkpt lat="45.11479" lon="3.48894">
        <ele>575.01</ele>
        <time>2021-01-17T11:38:55Z</time>
      </trkpt>
      <trkpt lat="45.11489" lon="3.48894">
        <ele>570.68</ele>
        <time>2021-01-17T11:39:10Z</time>
      </trkpt>
      <trkpt lat="45.11494" lon="3.4889">
        <ele>567.8</ele>
        <time>2021-01-17T11:39:15Z</time>
      </trkpt>
      <trkpt lat="45.11499" lon="3.48891">
        <ele>566.83</ele>
        <time>2021-01-17T11:39:20Z</time>
      </trkpt>
      <trkpt lat="45.11509" lon="3.48881">
        <ele>561.07</ele>
        <time>2021-01-17T11:39:31Z</time>
      </trkpt>
      <trkpt lat="45.11517" lon="3.4887">
        <ele>557.22</ele>
        <time>2021-01-17T11:39:43Z</time>
      </trkpt>
      <trkpt lat="45.11519" lon="3.48867">
        <ele>557.22</ele>
        <time>2021-01-17T11:40:02Z</time>
      </trkpt>
      <trkpt lat="45.1152" lon="3.48866">
        <ele>556.74</ele>
        <time>2021-01-17T11:40:03Z</time>
      </trkpt>
      <trkpt lat="45.11522" lon="3.48852">
        <ele>548.09</ele>
        <time>2021-01-17T11:40:18Z</time>
      </trkpt>
      <trkpt lat="45.11522" lon="3.48843">
        <ele>545.69</ele>
        <time>2021-01-17T11:40:36Z</time>
      </trkpt>
      <trkpt lat="45.11522" lon="3.48831">
        <ele>540.88</ele>
        <time>2021-01-17T11:40:48Z</time>
      </trkpt>
      <trkpt lat="45.11525" lon="3.48819">
        <ele>535.59</ele>
        <time>2021-01-17T11:41:02Z</time>
      </trkpt>
      <trkpt lat="45.11526" lon="3.48808">
        <ele>533.19</ele>
        <time>2021-01-17T11:41:10Z</time>
      </trkpt>
      <trkpt lat="45.11539" lon="3.48794">
        <ele>530.3</ele>
        <time>2021-01-17T11:41:23Z</time>
      </trkpt>
      <trkpt lat="45.11543" lon="3.48775">
        <ele>526.94</ele>
        <time>2021-01-17T11:41:36Z</time>
      </trkpt>
      <trkpt lat="45.11548" lon="3.48753">
        <ele>524.06</ele>
        <time>2021-01-17T11:41:50Z</time>
      </trkpt>
      <trkpt lat="45.11552" lon="3.48734">
        <ele>517.81</ele>
        <time>2021-01-17T11:42:04Z</time>
      </trkpt>
      <trkpt lat="45.11554" lon="3.48712">
        <ele>513</ele>
        <time>2021-01-17T11:42:16Z</time>
      </trkpt>
      <trkpt lat="45.11556" lon="3.48704">
        <ele>513</ele>
        <time>2021-01-17T11:42:20Z</time>
      </trkpt>
      <trkpt lat="45.11556" lon="3.48693">
        <ele>509.64</ele>
        <time>2021-01-17T11:42:28Z</time>
      </trkpt>
      <trkpt lat="45.1156" lon="3.48668">
        <ele>505.31</ele>
        <time>2021-01-17T11:42:43Z</time>
      </trkpt>
      <trkpt lat="45.11561" lon="3.48665">
        <ele>504.83</ele>
        <time>2021-01-17T11:42:45Z</time>
      </trkpt>
      <trkpt lat="45.11572" lon="3.48656">
        <ele>506.27</ele>
        <time>2021-01-17T11:42:55Z</time>
      </trkpt>
      <trkpt lat="45.11582" lon="3.48652">
        <ele>510.12</ele>
        <time>2021-01-17T11:43:02Z</time>
      </trkpt>
      <trkpt lat="45.1161" lon="3.4865">
        <ele>524.06</ele>
        <time>2021-01-17T11:43:18Z</time>
      </trkpt>
      <trkpt lat="45.11617" lon="3.48651">
        <ele>526.94</ele>
        <time>2021-01-17T11:43:23Z</time>
      </trkpt>
      <trkpt lat="45.11648" lon="3.48655">
        <ele>537.03</ele>
        <time>2021-01-17T11:43:37Z</time>
      </trkpt>
      <trkpt lat="45.11667" lon="3.48652">
        <ele>542.32</ele>
        <time>2021-01-17T11:43:49Z</time>
      </trkpt>
      <trkpt lat="45.1168" lon="3.48654">
        <ele>545.69</ele>
        <time>2021-01-17T11:44:00Z</time>
      </trkpt>
      <trkpt lat="45.11691" lon="3.48656">
        <ele>548.09</ele>
        <time>2021-01-17T11:44:07Z</time>
      </trkpt>
      <trkpt lat="45.11705" lon="3.48661">
        <ele>552.9</ele>
        <time>2021-01-17T11:44:16Z</time>
      </trkpt>
      <trkpt lat="45.11723" lon="3.48666">
        <ele>558.18</ele>
        <time>2021-01-17T11:44:26Z</time>
      </trkpt>
      <trkpt lat="45.11738" lon="3.4867">
        <ele>558.18</ele>
        <time>2021-01-17T11:44:39Z</time>
      </trkpt>
      <trkpt lat="45.11755" lon="3.48675">
        <ele>560.11</ele>
        <time>2021-01-17T11:44:52Z</time>
      </trkpt>
      <trkpt lat="45.11774" lon="3.48674">
        <ele>560.59</ele>
        <time>2021-01-17T11:45:08Z</time>
      </trkpt>
      <trkpt lat="45.11791" lon="3.48676">
        <ele>561.55</ele>
        <time>2021-01-17T11:45:22Z</time>
      </trkpt>
      <trkpt lat="45.11807" lon="3.4868">
        <ele>562.51</ele>
        <time>2021-01-17T11:45:36Z</time>
      </trkpt>
      <trkpt lat="45.11823" lon="3.48686">
        <ele>563.95</ele>
        <time>2021-01-17T11:45:50Z</time>
      </trkpt>
      <trkpt lat="45.11838" lon="3.48691">
        <ele>566.35</ele>
        <time>2021-01-17T11:46:04Z</time>
      </trkpt>
      <trkpt lat="45.11858" lon="3.4869">
        <ele>567.32</ele>
        <time>2021-01-17T11:46:17Z</time>
      </trkpt>
      <trkpt lat="45.11868" lon="3.48689">
        <ele>567.32</ele>
        <time>2021-01-17T11:46:25Z</time>
      </trkpt>
      <trkpt lat="45.11884" lon="3.4868">
        <ele>566.35</ele>
        <time>2021-01-17T11:46:40Z</time>
      </trkpt>
      <trkpt lat="45.11888" lon="3.48677">
        <ele>566.83</ele>
        <time>2021-01-17T11:46:45Z</time>
      </trkpt>
      <trkpt lat="45.11895" lon="3.48679">
        <ele>567.32</ele>
        <time>2021-01-17T11:46:50Z</time>
      </trkpt>
      <trkpt lat="45.11912" lon="3.48675">
        <ele>569.24</ele>
        <time>2021-01-17T11:47:05Z</time>
      </trkpt>
      <trkpt lat="45.11918" lon="3.48671">
        <ele>569.72</ele>
        <time>2021-01-17T11:47:20Z</time>
      </trkpt>
      <trkpt lat="45.11931" lon="3.48667">
        <ele>567.8</ele>
        <time>2021-01-17T11:47:34Z</time>
      </trkpt>
      <trkpt lat="45.11947" lon="3.48672">
        <ele>567.8</ele>
        <time>2021-01-17T11:47:48Z</time>
      </trkpt>
      <trkpt lat="45.1196" lon="3.48686">
        <ele>569.24</ele>
        <time>2021-01-17T11:48:00Z</time>
      </trkpt>
      <trkpt lat="45.11971" lon="3.487">
        <ele>566.35</ele>
        <time>2021-01-17T11:48:12Z</time>
      </trkpt>
      <trkpt lat="45.11987" lon="3.48701">
        <ele>565.87</ele>
        <time>2021-01-17T11:48:24Z</time>
      </trkpt>
      <trkpt lat="45.12002" lon="3.4869">
        <ele>563.95</ele>
        <time>2021-01-17T11:48:37Z</time>
      </trkpt>
      <trkpt lat="45.12007" lon="3.48689">
        <ele>562.99</ele>
        <time>2021-01-17T11:48:42Z</time>
      </trkpt>
      <trkpt lat="45.12019" lon="3.48688">
        <ele>560.11</ele>
        <time>2021-01-17T11:48:52Z</time>
      </trkpt>
      <trkpt lat="45.1202" lon="3.48687">
        <ele>557.22</ele>
        <time>2021-01-17T11:49:02Z</time>
      </trkpt>
      <trkpt lat="45.12032" lon="3.48686">
        <ele>556.26</ele>
        <time>2021-01-17T11:49:16Z</time>
      </trkpt>
      <trkpt lat="45.1204" lon="3.48687">
        <ele>555.3</ele>
        <time>2021-01-17T11:49:24Z</time>
      </trkpt>
      <trkpt lat="45.12045" lon="3.4869">
        <ele>554.82</ele>
        <time>2021-01-17T11:49:28Z</time>
      </trkpt>
      <trkpt lat="45.12049" lon="3.48691">
        <ele>554.34</ele>
        <time>2021-01-17T11:49:31Z</time>
      </trkpt>
      <trkpt lat="45.12053" lon="3.48694">
        <ele>553.86</ele>
        <time>2021-01-17T11:49:35Z</time>
      </trkpt>
      <trkpt lat="45.12065" lon="3.48693">
        <ele>551.93</ele>
        <time>2021-01-17T11:49:46Z</time>
      </trkpt>
      <trkpt lat="45.12065" lon="3.48693">
        <ele>551.45</ele>
        <time>2021-01-17T11:49:47Z</time>
      </trkpt>
      <trkpt lat="45.12069" lon="3.48692">
        <ele>550.97</ele>
        <time>2021-01-17T11:49:51Z</time>
      </trkpt>
      <trkpt lat="45.12083" lon="3.48691">
        <ele>549.53</ele>
        <time>2021-01-17T11:50:03Z</time>
      </trkpt>
      <trkpt lat="45.12091" lon="3.48695">
        <ele>548.57</ele>
        <time>2021-01-17T11:50:10Z</time>
      </trkpt>
      <trkpt lat="45.12109" lon="3.48699">
        <ele>546.17</ele>
        <time>2021-01-17T11:50:24Z</time>
      </trkpt>
      <trkpt lat="45.12123" lon="3.48701">
        <ele>545.2</ele>
        <time>2021-01-17T11:50:35Z</time>
      </trkpt>
      <trkpt lat="45.1213" lon="3.48703">
        <ele>545.2</ele>
        <time>2021-01-17T11:50:41Z</time>
      </trkpt>
      <trkpt lat="45.12136" lon="3.48709">
        <ele>543.28</ele>
        <time>2021-01-17T11:50:54Z</time>
      </trkpt>
      <trkpt lat="45.1214" lon="3.48714">
        <ele>541.84</ele>
        <time>2021-01-17T11:50:58Z</time>
      </trkpt>
      <trkpt lat="45.12157" lon="3.48717">
        <ele>538.96</ele>
        <time>2021-01-17T11:51:11Z</time>
      </trkpt>
      <trkpt lat="45.12166" lon="3.48709">
        <ele>536.55</ele>
        <time>2021-01-17T11:51:21Z</time>
      </trkpt>
      <trkpt lat="45.1217" lon="3.48692">
        <ele>528.86</ele>
        <time>2021-01-17T11:51:35Z</time>
      </trkpt>
      <trkpt lat="45.12169" lon="3.4869">
        <ele>527.9</ele>
        <time>2021-01-17T11:51:37Z</time>
      </trkpt>
      <trkpt lat="45.12171" lon="3.48685">
        <ele>527.42</ele>
        <time>2021-01-17T11:51:41Z</time>
      </trkpt>
      <trkpt lat="45.12171" lon="3.48671">
        <ele>525.5</ele>
        <time>2021-01-17T11:51:52Z</time>
      </trkpt>
      <trkpt lat="45.12171" lon="3.48661">
        <ele>523.09</ele>
        <time>2021-01-17T11:51:59Z</time>
      </trkpt>
      <trkpt lat="45.12171" lon="3.48651">
        <ele>524.06</ele>
        <time>2021-01-17T11:52:13Z</time>
      </trkpt>
      <trkpt lat="45.12175" lon="3.48645">
        <ele>523.09</ele>
        <time>2021-01-17T11:52:18Z</time>
      </trkpt>
      <trkpt lat="45.12181" lon="3.48639">
        <ele>523.09</ele>
        <time>2021-01-17T11:52:28Z</time>
      </trkpt>
      <trkpt lat="45.12189" lon="3.48625">
        <ele>522.61</ele>
        <time>2021-01-17T11:52:42Z</time>
      </trkpt>
      <trkpt lat="45.12192" lon="3.4862">
        <ele>522.13</ele>
        <time>2021-01-17T11:52:46Z</time>
      </trkpt>
      <trkpt lat="45.12197" lon="3.48597">
        <ele>520.21</ele>
        <time>2021-01-17T11:52:59Z</time>
      </trkpt>
      <trkpt lat="45.122" lon="3.48584">
        <ele>519.25</ele>
        <time>2021-01-17T11:53:12Z</time>
      </trkpt>
      <trkpt lat="45.122" lon="3.48573">
        <ele>518.77</ele>
        <time>2021-01-17T11:53:23Z</time>
      </trkpt>
      <trkpt lat="45.12202" lon="3.48561">
        <ele>516.85</ele>
        <time>2021-01-17T11:53:34Z</time>
      </trkpt>
      <trkpt lat="45.12206" lon="3.48544">
        <ele>513.96</ele>
        <time>2021-01-17T11:53:46Z</time>
      </trkpt>
      <trkpt lat="45.12208" lon="3.48541">
        <ele>512.52</ele>
        <time>2021-01-17T11:53:49Z</time>
      </trkpt>
      <trkpt lat="45.12219" lon="3.48526">
        <ele>506.75</ele>
        <time>2021-01-17T11:54:04Z</time>
      </trkpt>
      <trkpt lat="45.12226" lon="3.48514">
        <ele>498.58</ele>
        <time>2021-01-17T11:54:16Z</time>
      </trkpt>
      <trkpt lat="45.12234" lon="3.48506">
        <ele>495.7</ele>
        <time>2021-01-17T11:54:23Z</time>
      </trkpt>
      <trkpt lat="45.12241" lon="3.48499">
        <ele>496.18</ele>
        <time>2021-01-17T11:54:29Z</time>
      </trkpt>
      <trkpt lat="45.12249" lon="3.48491">
        <ele>496.18</ele>
        <time>2021-01-17T11:54:43Z</time>
      </trkpt>
      <trkpt lat="45.1225" lon="3.4849">
        <ele>496.18</ele>
        <time>2021-01-17T11:54:46Z</time>
      </trkpt>
      <trkpt lat="45.12254" lon="3.4848">
        <ele>496.66</ele>
        <time>2021-01-17T11:54:53Z</time>
      </trkpt>
      <trkpt lat="45.12257" lon="3.48476">
        <ele>497.14</ele>
        <time>2021-01-17T11:54:56Z</time>
      </trkpt>
      <trkpt lat="45.12263" lon="3.48468">
        <ele>498.1</ele>
        <time>2021-01-17T11:55:01Z</time>
      </trkpt>
      <trkpt lat="45.12274" lon="3.48466">
        <ele>497.14</ele>
        <time>2021-01-17T11:55:10Z</time>
      </trkpt>
      <trkpt lat="45.12283" lon="3.48467">
        <ele>499.06</ele>
        <time>2021-01-17T11:55:22Z</time>
      </trkpt>
      <trkpt lat="45.12301" lon="3.48475">
        <ele>503.39</ele>
        <time>2021-01-17T11:55:37Z</time>
      </trkpt>
      <trkpt lat="45.12302" lon="3.48476">
        <ele>503.87</ele>
        <time>2021-01-17T11:55:38Z</time>
      </trkpt>
      <trkpt lat="45.12309" lon="3.48478">
        <ele>505.79</ele>
        <time>2021-01-17T11:55:42Z</time>
      </trkpt>
      <trkpt lat="45.12317" lon="3.48478">
        <ele>506.75</ele>
        <time>2021-01-17T11:55:48Z</time>
      </trkpt>
      <trkpt lat="45.12319" lon="3.48478">
        <ele>507.23</ele>
        <time>2021-01-17T11:55:50Z</time>
      </trkpt>
      <trkpt lat="45.12337" lon="3.48484">
        <ele>507.71</ele>
        <time>2021-01-17T11:56:06Z</time>
      </trkpt>
      <trkpt lat="45.12349" lon="3.48489">
        <ele>508.67</ele>
        <time>2021-01-17T11:56:19Z</time>
      </trkpt>
      <trkpt lat="45.12368" lon="3.48486">
        <ele>509.16</ele>
        <time>2021-01-17T11:56:35Z</time>
      </trkpt>
      <trkpt lat="45.12381" lon="3.48485">
        <ele>509.64</ele>
        <time>2021-01-17T11:56:48Z</time>
      </trkpt>
      <trkpt lat="45.12387" lon="3.48481">
        <ele>510.6</ele>
        <time>2021-01-17T11:57:00Z</time>
      </trkpt>
      <trkpt lat="45.12388" lon="3.48478">
        <ele>510.6</ele>
        <time>2021-01-17T11:57:12Z</time>
      </trkpt>
      <trkpt lat="45.12391" lon="3.48484">
        <ele>508.67</ele>
        <time>2021-01-17T11:57:18Z</time>
      </trkpt>
      <trkpt lat="45.12396" lon="3.48498">
        <ele>508.19</ele>
        <time>2021-01-17T11:57:31Z</time>
      </trkpt>
      <trkpt lat="45.12397" lon="3.485">
        <ele>506.27</ele>
        <time>2021-01-17T11:57:44Z</time>
      </trkpt>
      <trkpt lat="45.12399" lon="3.48509">
        <ele>505.31</ele>
        <time>2021-01-17T11:57:57Z</time>
      </trkpt>
      <trkpt lat="45.12402" lon="3.48515">
        <ele>503.39</ele>
        <time>2021-01-17T11:58:13Z</time>
      </trkpt>
      <trkpt lat="45.12403" lon="3.48517">
        <ele>502.43</ele>
        <time>2021-01-17T11:58:31Z</time>
      </trkpt>
      <trkpt lat="45.12407" lon="3.48527">
        <ele>500.98</ele>
        <time>2021-01-17T11:58:38Z</time>
      </trkpt>
      <trkpt lat="45.1241" lon="3.48534">
        <ele>500.02</ele>
        <time>2021-01-17T11:58:44Z</time>
      </trkpt>
      <trkpt lat="45.12417" lon="3.48548">
        <ele>497.14</ele>
        <time>2021-01-17T11:58:55Z</time>
      </trkpt>
      <trkpt lat="45.12428" lon="3.48564">
        <ele>494.74</ele>
        <time>2021-01-17T11:59:07Z</time>
      </trkpt>
      <trkpt lat="45.1244" lon="3.48578">
        <ele>494.74</ele>
        <time>2021-01-17T11:59:21Z</time>
      </trkpt>
      <trkpt lat="45.12455" lon="3.48585">
        <ele>496.66</ele>
        <time>2021-01-17T11:59:35Z</time>
      </trkpt>
      <trkpt lat="45.12456" lon="3.48584">
        <ele>496.66</ele>
        <time>2021-01-17T11:59:36Z</time>
      </trkpt>
      <trkpt lat="45.12467" lon="3.48574">
        <ele>498.58</ele>
        <time>2021-01-17T11:59:49Z</time>
      </trkpt>
      <trkpt lat="45.12483" lon="3.48559">
        <ele>499.06</ele>
        <time>2021-01-17T12:00:04Z</time>
      </trkpt>
      <trkpt lat="45.125" lon="3.48544">
        <ele>500.5</ele>
        <time>2021-01-17T12:00:19Z</time>
      </trkpt>
      <trkpt lat="45.12514" lon="3.48531">
        <ele>501.46</ele>
        <time>2021-01-17T12:00:32Z</time>
      </trkpt>
      <trkpt lat="45.12531" lon="3.48516">
        <ele>500.98</ele>
        <time>2021-01-17T12:00:46Z</time>
      </trkpt>
      <trkpt lat="45.12532" lon="3.48515">
        <ele>500.98</ele>
        <time>2021-01-17T12:00:48Z</time>
      </trkpt>
      <trkpt lat="45.12538" lon="3.4851">
        <ele>502.43</ele>
        <time>2021-01-17T12:00:59Z</time>
      </trkpt>
      <trkpt lat="45.12544" lon="3.48507">
        <ele>502.43</ele>
        <time>2021-01-17T12:01:10Z</time>
      </trkpt>
      <trkpt lat="45.12558" lon="3.48499">
        <ele>501.46</ele>
        <time>2021-01-17T12:01:25Z</time>
      </trkpt>
      <trkpt lat="45.12559" lon="3.48496">
        <ele>500.98</ele>
        <time>2021-01-17T12:01:37Z</time>
      </trkpt>
      <trkpt lat="45.12575" lon="3.48487">
        <ele>499.06</ele>
        <time>2021-01-17T12:01:51Z</time>
      </trkpt>
      <trkpt lat="45.12593" lon="3.48479">
        <ele>500.5</ele>
        <time>2021-01-17T12:02:07Z</time>
      </trkpt>
      <trkpt lat="45.12608" lon="3.48473">
        <ele>500.5</ele>
        <time>2021-01-17T12:02:19Z</time>
      </trkpt>
      <trkpt lat="45.12628" lon="3.48464">
        <ele>500.98</ele>
        <time>2021-01-17T12:02:36Z</time>
      </trkpt>
      <trkpt lat="45.12642" lon="3.48456">
        <ele>500.98</ele>
        <time>2021-01-17T12:02:50Z</time>
      </trkpt>
      <trkpt lat="45.12651" lon="3.4845">
        <ele>500.98</ele>
        <time>2021-01-17T12:03:01Z</time>
      </trkpt>
      <trkpt lat="45.12667" lon="3.48448">
        <ele>500.5</ele>
        <time>2021-01-17T12:03:14Z</time>
      </trkpt>
      <trkpt lat="45.12683" lon="3.48441">
        <ele>500.98</ele>
        <time>2021-01-17T12:03:28Z</time>
      </trkpt>
      <trkpt lat="45.12694" lon="3.48436">
        <ele>500.98</ele>
        <time>2021-01-17T12:03:39Z</time>
      </trkpt>
      <trkpt lat="45.12715" lon="3.48429">
        <ele>501.46</ele>
        <time>2021-01-17T12:03:55Z</time>
      </trkpt>
      <trkpt lat="45.12741" lon="3.48419">
        <ele>502.43</ele>
        <time>2021-01-17T12:04:14Z</time>
      </trkpt>
      <trkpt lat="45.1275" lon="3.48413">
        <ele>502.43</ele>
        <time>2021-01-17T12:04:26Z</time>
      </trkpt>
      <trkpt lat="45.12756" lon="3.48402">
        <ele>501.46</ele>
        <time>2021-01-17T12:04:36Z</time>
      </trkpt>
      <trkpt lat="45.12757" lon="3.48399">
        <ele>501.46</ele>
        <time>2021-01-17T12:04:38Z</time>
      </trkpt>
      <trkpt lat="45.12763" lon="3.48376">
        <ele>500.02</ele>
        <time>2021-01-17T12:04:53Z</time>
      </trkpt>
      <trkpt lat="45.12765" lon="3.48364">
        <ele>500.98</ele>
        <time>2021-01-17T12:05:03Z</time>
      </trkpt>
      <trkpt lat="45.12768" lon="3.48341">
        <ele>501.95</ele>
        <time>2021-01-17T12:05:15Z</time>
      </trkpt>
      <trkpt lat="45.12771" lon="3.48339">
        <ele>501.46</ele>
        <time>2021-01-17T12:05:25Z</time>
      </trkpt>
      <trkpt lat="45.12771" lon="3.48336">
        <ele>501.46</ele>
        <time>2021-01-17T12:05:29Z</time>
      </trkpt>
      <trkpt lat="45.12771" lon="3.4833">
        <ele>500.5</ele>
        <time>2021-01-17T12:05:35Z</time>
      </trkpt>
      <trkpt lat="45.12779" lon="3.48301">
        <ele>499.06</ele>
        <time>2021-01-17T12:05:50Z</time>
      </trkpt>
      <trkpt lat="45.12789" lon="3.48273">
        <ele>499.06</ele>
        <time>2021-01-17T12:06:07Z</time>
      </trkpt>
      <trkpt lat="45.12794" lon="3.48261">
        <ele>497.14</ele>
        <time>2021-01-17T12:06:21Z</time>
      </trkpt>
      <trkpt lat="45.12794" lon="3.48259">
        <ele>497.14</ele>
        <time>2021-01-17T12:06:23Z</time>
      </trkpt>
      <trkpt lat="45.12805" lon="3.48243">
        <ele>499.54</ele>
        <time>2021-01-17T12:06:35Z</time>
      </trkpt>
      <trkpt lat="45.12815" lon="3.48221">
        <ele>505.31</ele>
        <time>2021-01-17T12:06:48Z</time>
      </trkpt>
      <trkpt lat="45.1282" lon="3.48212">
        <ele>507.23</ele>
        <time>2021-01-17T12:07:02Z</time>
      </trkpt>
      <trkpt lat="45.12829" lon="3.48202">
        <ele>508.19</ele>
        <time>2021-01-17T12:07:19Z</time>
      </trkpt>
      <trkpt lat="45.12831" lon="3.48197">
        <ele>508.67</ele>
        <time>2021-01-17T12:07:32Z</time>
      </trkpt>
      <trkpt lat="45.12846" lon="3.48184">
        <ele>508.19</ele>
        <time>2021-01-17T12:07:47Z</time>
      </trkpt>
      <trkpt lat="45.12858" lon="3.48177">
        <ele>508.19</ele>
        <time>2021-01-17T12:07:59Z</time>
      </trkpt>
      <trkpt lat="45.12864" lon="3.4817">
        <ele>507.71</ele>
        <time>2021-01-17T12:08:15Z</time>
      </trkpt>
      <trkpt lat="45.12877" lon="3.48163">
        <ele>506.27</ele>
        <time>2021-01-17T12:08:30Z</time>
      </trkpt>
      <trkpt lat="45.12891" lon="3.48152">
        <ele>505.79</ele>
        <time>2021-01-17T12:08:44Z</time>
      </trkpt>
      <trkpt lat="45.129" lon="3.48146">
        <ele>506.27</ele>
        <time>2021-01-17T12:08:58Z</time>
      </trkpt>
      <trkpt lat="45.12921" lon="3.48131">
        <ele>507.23</ele>
        <time>2021-01-17T12:09:17Z</time>
      </trkpt>
      <trkpt lat="45.12946" lon="3.48119">
        <ele>505.31</ele>
        <time>2021-01-17T12:09:37Z</time>
      </trkpt>
      <trkpt lat="45.12965" lon="3.48107">
        <ele>503.39</ele>
        <time>2021-01-17T12:09:55Z</time>
      </trkpt>
      <trkpt lat="45.12983" lon="3.48097">
        <ele>501.95</ele>
        <time>2021-01-17T12:10:12Z</time>
      </trkpt>
      <trkpt lat="45.13004" lon="3.48087">
        <ele>503.39</ele>
        <time>2021-01-17T12:10:30Z</time>
      </trkpt>
      <trkpt lat="45.13009" lon="3.48079">
        <ele>503.87</ele>
        <time>2021-01-17T12:10:43Z</time>
      </trkpt>
      <trkpt lat="45.1301" lon="3.48074">
        <ele>503.87</ele>
        <time>2021-01-17T12:10:46Z</time>
      </trkpt>
      <trkpt lat="45.13009" lon="3.48052">
        <ele>502.91</ele>
        <time>2021-01-17T12:11:01Z</time>
      </trkpt>
      <trkpt lat="45.1301" lon="3.48027">
        <ele>505.31</ele>
        <time>2021-01-17T12:11:16Z</time>
      </trkpt>
      <trkpt lat="45.13018" lon="3.48012">
        <ele>511.56</ele>
        <time>2021-01-17T12:11:28Z</time>
      </trkpt>
      <trkpt lat="45.13022" lon="3.48012">
        <ele>513.96</ele>
        <time>2021-01-17T12:11:32Z</time>
      </trkpt>
      <trkpt lat="45.13035" lon="3.48011">
        <ele>516.85</ele>
        <time>2021-01-17T12:11:47Z</time>
      </trkpt>
      <trkpt lat="45.13049" lon="3.4801">
        <ele>516.37</ele>
        <time>2021-01-17T12:12:02Z</time>
      </trkpt>
      <trkpt lat="45.13052" lon="3.4801">
        <ele>516.85</ele>
        <time>2021-01-17T12:12:05Z</time>
      </trkpt>
      <trkpt lat="45.13057" lon="3.4801">
        <ele>516.37</ele>
        <time>2021-01-17T12:12:10Z</time>
      </trkpt>
      <trkpt lat="45.13062" lon="3.4801">
        <ele>514.44</ele>
        <time>2021-01-17T12:12:31Z</time>
      </trkpt>
      <trkpt lat="45.13067" lon="3.4801">
        <ele>512.52</ele>
        <time>2021-01-17T12:12:49Z</time>
      </trkpt>
      <trkpt lat="45.13066" lon="3.4801">
        <ele>511.56</ele>
        <time>2021-01-17T12:13:13Z</time>
      </trkpt>
      <trkpt lat="45.13067" lon="3.48012">
        <ele>511.56</ele>
        <time>2021-01-17T12:13:34Z</time>
      </trkpt>
      <trkpt lat="45.13073" lon="3.48016">
        <ele>512.04</ele>
        <time>2021-01-17T12:13:53Z</time>
      </trkpt>
      <trkpt lat="45.13091" lon="3.48026">
        <ele>516.85</ele>
        <time>2021-01-17T12:14:06Z</time>
      </trkpt>
      <trkpt lat="45.13107" lon="3.48028">
        <ele>517.33</ele>
        <time>2021-01-17T12:14:19Z</time>
      </trkpt>
      <trkpt lat="45.13122" lon="3.48029">
        <ele>516.85</ele>
        <time>2021-01-17T12:14:31Z</time>
      </trkpt>
      <trkpt lat="45.1314" lon="3.48034">
        <ele>516.85</ele>
        <time>2021-01-17T12:14:46Z</time>
      </trkpt>
      <trkpt lat="45.13148" lon="3.48034">
        <ele>517.81</ele>
        <time>2021-01-17T12:14:59Z</time>
      </trkpt>
      <trkpt lat="45.13162" lon="3.48029">
        <ele>517.33</ele>
        <time>2021-01-17T12:15:17Z</time>
      </trkpt>
      <trkpt lat="45.13176" lon="3.48022">
        <ele>516.37</ele>
        <time>2021-01-17T12:15:29Z</time>
      </trkpt>
      <trkpt lat="45.13177" lon="3.48021">
        <ele>516.37</ele>
        <time>2021-01-17T12:15:30Z</time>
      </trkpt>
      <trkpt lat="45.13181" lon="3.48017">
        <ele>517.33</ele>
        <time>2021-01-17T12:15:33Z</time>
      </trkpt>
      <trkpt lat="45.13197" lon="3.48007">
        <ele>519.25</ele>
        <time>2021-01-17T12:15:45Z</time>
      </trkpt>
      <trkpt lat="45.13201" lon="3.48005">
        <ele>520.21</ele>
        <time>2021-01-17T12:15:48Z</time>
      </trkpt>
      <trkpt lat="45.1321" lon="3.48003">
        <ele>520.69</ele>
        <time>2021-01-17T12:16:00Z</time>
      </trkpt>
      <trkpt lat="45.13214" lon="3.47999">
        <ele>521.17</ele>
        <time>2021-01-17T12:16:06Z</time>
      </trkpt>
      <trkpt lat="45.13226" lon="3.47988">
        <ele>520.69</ele>
        <time>2021-01-17T12:16:20Z</time>
      </trkpt>
      <trkpt lat="45.13243" lon="3.47978">
        <ele>521.17</ele>
        <time>2021-01-17T12:16:39Z</time>
      </trkpt>
      <trkpt lat="45.1326" lon="3.47967">
        <ele>524.06</ele>
        <time>2021-01-17T12:16:58Z</time>
      </trkpt>
      <trkpt lat="45.13282" lon="3.47952">
        <ele>530.3</ele>
        <time>2021-01-17T12:17:17Z</time>
      </trkpt>
      <trkpt lat="45.13294" lon="3.47939">
        <ele>532.71</ele>
        <time>2021-01-17T12:17:35Z</time>
      </trkpt>
      <trkpt lat="45.13305" lon="3.47933">
        <ele>535.59</ele>
        <time>2021-01-17T12:17:50Z</time>
      </trkpt>
      <trkpt lat="45.13309" lon="3.47928">
        <ele>537.51</ele>
        <time>2021-01-17T12:18:02Z</time>
      </trkpt>
      <trkpt lat="45.13319" lon="3.47918">
        <ele>540.88</ele>
        <time>2021-01-17T12:18:15Z</time>
      </trkpt>
      <trkpt lat="45.13333" lon="3.47904">
        <ele>543.76</ele>
        <time>2021-01-17T12:18:31Z</time>
      </trkpt>
      <trkpt lat="45.13342" lon="3.47886">
        <ele>546.17</ele>
        <time>2021-01-17T12:18:48Z</time>
      </trkpt>
      <trkpt lat="45.13348" lon="3.47866">
        <ele>550.01</ele>
        <time>2021-01-17T12:19:02Z</time>
      </trkpt>
      <trkpt lat="45.13355" lon="3.47852">
        <ele>553.38</ele>
        <time>2021-01-17T12:19:15Z</time>
      </trkpt>
      <trkpt lat="45.13358" lon="3.47849">
        <ele>552.41</ele>
        <time>2021-01-17T12:19:19Z</time>
      </trkpt>
      <trkpt lat="45.13364" lon="3.47847">
        <ele>551.93</ele>
        <time>2021-01-17T12:19:25Z</time>
      </trkpt>
      <trkpt lat="45.13369" lon="3.47849">
        <ele>552.9</ele>
        <time>2021-01-17T12:19:30Z</time>
      </trkpt>
      <trkpt lat="45.1338" lon="3.47858">
        <ele>550.97</ele>
        <time>2021-01-17T12:19:43Z</time>
      </trkpt>
      <trkpt lat="45.13399" lon="3.47863">
        <ele>549.05</ele>
        <time>2021-01-17T12:20:00Z</time>
      </trkpt>
      <trkpt lat="45.13413" lon="3.47861">
        <ele>547.13</ele>
        <time>2021-01-17T12:20:12Z</time>
      </trkpt>
      <trkpt lat="45.13427" lon="3.47857">
        <ele>543.28</ele>
        <time>2021-01-17T12:20:25Z</time>
      </trkpt>
      <trkpt lat="45.1343" lon="3.47855">
        <ele>542.8</ele>
        <time>2021-01-17T12:20:28Z</time>
      </trkpt>
      <trkpt lat="45.13434" lon="3.47853">
        <ele>542.32</ele>
        <time>2021-01-17T12:20:32Z</time>
      </trkpt>
      <trkpt lat="45.13439" lon="3.47851">
        <ele>543.28</ele>
        <time>2021-01-17T12:20:36Z</time>
      </trkpt>
      <trkpt lat="45.13454" lon="3.47847">
        <ele>544.24</ele>
        <time>2021-01-17T12:20:47Z</time>
      </trkpt>
      <trkpt lat="45.13473" lon="3.47845">
        <ele>543.28</ele>
        <time>2021-01-17T12:21:03Z</time>
      </trkpt>
      <trkpt lat="45.13484" lon="3.47843">
        <ele>543.76</ele>
        <time>2021-01-17T12:21:11Z</time>
      </trkpt>
      <trkpt lat="45.13493" lon="3.47836">
        <ele>543.28</ele>
        <time>2021-01-17T12:21:24Z</time>
      </trkpt>
      <trkpt lat="45.13503" lon="3.47819">
        <ele>545.2</ele>
        <time>2021-01-17T12:21:38Z</time>
      </trkpt>
      <trkpt lat="45.1351" lon="3.47806">
        <ele>547.13</ele>
        <time>2021-01-17T12:21:48Z</time>
      </trkpt>
      <trkpt lat="45.13517" lon="3.47801">
        <ele>547.61</ele>
        <time>2021-01-17T12:21:57Z</time>
      </trkpt>
      <trkpt lat="45.13533" lon="3.47802">
        <ele>550.01</ele>
        <time>2021-01-17T12:22:10Z</time>
      </trkpt>
      <trkpt lat="45.1355" lon="3.47806">
        <ele>552.9</ele>
        <time>2021-01-17T12:22:26Z</time>
      </trkpt>
      <trkpt lat="45.13563" lon="3.4781">
        <ele>554.82</ele>
        <time>2021-01-17T12:22:35Z</time>
      </trkpt>
      <trkpt lat="45.13572" lon="3.4781">
        <ele>555.78</ele>
        <time>2021-01-17T12:22:44Z</time>
      </trkpt>
      <trkpt lat="45.13577" lon="3.47809">
        <ele>558.66</ele>
        <time>2021-01-17T12:22:49Z</time>
      </trkpt>
      <trkpt lat="45.13586" lon="3.47808">
        <ele>560.59</ele>
        <time>2021-01-17T12:22:56Z</time>
      </trkpt>
      <trkpt lat="45.13595" lon="3.47807">
        <ele>562.51</ele>
        <time>2021-01-17T12:23:16Z</time>
      </trkpt>
      <trkpt lat="45.13604" lon="3.47805">
        <ele>562.99</ele>
        <time>2021-01-17T12:23:22Z</time>
      </trkpt>
      <trkpt lat="45.13626" lon="3.478">
        <ele>563.95</ele>
        <time>2021-01-17T12:23:42Z</time>
      </trkpt>
      <trkpt lat="45.13649" lon="3.47795">
        <ele>566.35</ele>
        <time>2021-01-17T12:23:59Z</time>
      </trkpt>
      <trkpt lat="45.13672" lon="3.47792">
        <ele>569.72</ele>
        <time>2021-01-17T12:24:17Z</time>
      </trkpt>
      <trkpt lat="45.13696" lon="3.4779">
        <ele>572.6</ele>
        <time>2021-01-17T12:24:36Z</time>
      </trkpt>
      <trkpt lat="45.13714" lon="3.47787">
        <ele>574.04</ele>
        <time>2021-01-17T12:24:51Z</time>
      </trkpt>
      <trkpt lat="45.13725" lon="3.47785">
        <ele>575.49</ele>
        <time>2021-01-17T12:25:03Z</time>
      </trkpt>
      <trkpt lat="45.13745" lon="3.47781">
        <ele>578.37</ele>
        <time>2021-01-17T12:25:20Z</time>
      </trkpt>
      <trkpt lat="45.13763" lon="3.47778">
        <ele>580.77</ele>
        <time>2021-01-17T12:25:35Z</time>
      </trkpt>
      <trkpt lat="45.13775" lon="3.47775">
        <ele>580.29</ele>
        <time>2021-01-17T12:25:44Z</time>
      </trkpt>
      <trkpt lat="45.13793" lon="3.47762">
        <ele>579.81</ele>
        <time>2021-01-17T12:26:00Z</time>
      </trkpt>
      <trkpt lat="45.13799" lon="3.47755">
        <ele>578.37</ele>
        <time>2021-01-17T12:26:06Z</time>
      </trkpt>
      <trkpt lat="45.13809" lon="3.4774">
        <ele>579.33</ele>
        <time>2021-01-17T12:26:18Z</time>
      </trkpt>
      <trkpt lat="45.1382" lon="3.47722">
        <ele>576.93</ele>
        <time>2021-01-17T12:26:32Z</time>
      </trkpt>
      <trkpt lat="45.13823" lon="3.47716">
        <ele>575.97</ele>
        <time>2021-01-17T12:26:37Z</time>
      </trkpt>
      <trkpt lat="45.13827" lon="3.47712">
        <ele>575.49</ele>
        <time>2021-01-17T12:26:41Z</time>
      </trkpt>
      <trkpt lat="45.13833" lon="3.47689">
        <ele>572.12</ele>
        <time>2021-01-17T12:26:57Z</time>
      </trkpt>
      <trkpt lat="45.13833" lon="3.4768">
        <ele>571.64</ele>
        <time>2021-01-17T12:27:02Z</time>
      </trkpt>
      <trkpt lat="45.1383" lon="3.47656">
        <ele>572.6</ele>
        <time>2021-01-17T12:27:16Z</time>
      </trkpt>
      <trkpt lat="45.13827" lon="3.47648">
        <ele>573.08</ele>
        <time>2021-01-17T12:27:23Z</time>
      </trkpt>
      <trkpt lat="45.13824" lon="3.4764">
        <ele>574.04</ele>
        <time>2021-01-17T12:27:29Z</time>
      </trkpt>
      <trkpt lat="45.13818" lon="3.47625">
        <ele>573.56</ele>
        <time>2021-01-17T12:27:44Z</time>
      </trkpt>
      <trkpt lat="45.13815" lon="3.47616">
        <ele>573.56</ele>
        <time>2021-01-17T12:27:49Z</time>
      </trkpt>
      <trkpt lat="45.13802" lon="3.47599">
        <ele>573.56</ele>
        <time>2021-01-17T12:28:05Z</time>
      </trkpt>
      <trkpt lat="45.13797" lon="3.47583">
        <ele>573.56</ele>
        <time>2021-01-17T12:28:15Z</time>
      </trkpt>
      <trkpt lat="45.13798" lon="3.47568">
        <ele>574.53</ele>
        <time>2021-01-17T12:28:22Z</time>
      </trkpt>
      <trkpt lat="45.13798" lon="3.47563">
        <ele>573.08</ele>
        <time>2021-01-17T12:28:37Z</time>
      </trkpt>
      <trkpt lat="45.138" lon="3.47555">
        <ele>574.04</ele>
        <time>2021-01-17T12:28:43Z</time>
      </trkpt>
      <trkpt lat="45.138" lon="3.47543">
        <ele>573.56</ele>
        <time>2021-01-17T12:28:51Z</time>
      </trkpt>
      <trkpt lat="45.13801" lon="3.47536">
        <ele>574.53</ele>
        <time>2021-01-17T12:28:56Z</time>
      </trkpt>
      <trkpt lat="45.13802" lon="3.47524">
        <ele>577.41</ele>
        <time>2021-01-17T12:29:07Z</time>
      </trkpt>
      <trkpt lat="45.13801" lon="3.47523">
        <ele>577.89</ele>
        <time>2021-01-17T12:29:08Z</time>
      </trkpt>
      <trkpt lat="45.13799" lon="3.47516">
        <ele>578.85</ele>
        <time>2021-01-17T12:29:14Z</time>
      </trkpt>
      <trkpt lat="45.13792" lon="3.47504">
        <ele>579.81</ele>
        <time>2021-01-17T12:29:22Z</time>
      </trkpt>
      <trkpt lat="45.13793" lon="3.47505">
        <ele>580.29</ele>
        <time>2021-01-17T12:29:29Z</time>
      </trkpt>
      <trkpt lat="45.13797" lon="3.47513">
        <ele>580.29</ele>
        <time>2021-01-17T12:29:48Z</time>
      </trkpt>
      <trkpt lat="45.13798" lon="3.47522">
        <ele>578.85</ele>
        <time>2021-01-17T12:30:04Z</time>
      </trkpt>
      <trkpt lat="45.13797" lon="3.47522">
        <ele>578.37</ele>
        <time>2021-01-17T12:30:29Z</time>
      </trkpt>
      <trkpt lat="45.13796" lon="3.4752">
        <ele>578.37</ele>
        <time>2021-01-17T12:30:57Z</time>
      </trkpt>
      <trkpt lat="45.1379" lon="3.47497">
        <ele>578.37</ele>
        <time>2021-01-17T12:31:12Z</time>
      </trkpt>
      <trkpt lat="45.13785" lon="3.47476">
        <ele>574.04</ele>
        <time>2021-01-17T12:31:28Z</time>
      </trkpt>
      <trkpt lat="45.13767" lon="3.47446">
        <ele>565.39</ele>
        <time>2021-01-17T12:31:48Z</time>
      </trkpt>
      <trkpt lat="45.13766" lon="3.47441">
        <ele>564.43</ele>
        <time>2021-01-17T12:31:51Z</time>
      </trkpt>
      <trkpt lat="45.13762" lon="3.47412">
        <ele>558.66</ele>
        <time>2021-01-17T12:32:09Z</time>
      </trkpt>
      <trkpt lat="45.13763" lon="3.47381">
        <ele>555.3</ele>
        <time>2021-01-17T12:32:26Z</time>
      </trkpt>
      <trkpt lat="45.13769" lon="3.47374">
        <ele>554.82</ele>
        <time>2021-01-17T12:32:32Z</time>
      </trkpt>
      <trkpt lat="45.13782" lon="3.47355">
        <ele>551.45</ele>
        <time>2021-01-17T12:32:48Z</time>
      </trkpt>
      <trkpt lat="45.13787" lon="3.47337">
        <ele>545.69</ele>
        <time>2021-01-17T12:33:02Z</time>
      </trkpt>
      <trkpt lat="45.13784" lon="3.47333">
        <ele>543.28</ele>
        <time>2021-01-17T12:33:11Z</time>
      </trkpt>
      <trkpt lat="45.13782" lon="3.47318">
        <ele>541.36</ele>
        <time>2021-01-17T12:33:29Z</time>
      </trkpt>
      <trkpt lat="45.13778" lon="3.4729">
        <ele>539.44</ele>
        <time>2021-01-17T12:33:45Z</time>
      </trkpt>
      <trkpt lat="45.13776" lon="3.47274">
        <ele>537.99</ele>
        <time>2021-01-17T12:34:00Z</time>
      </trkpt>
      <trkpt lat="45.13774" lon="3.47271">
        <ele>536.55</ele>
        <time>2021-01-17T12:34:14Z</time>
      </trkpt>
      <trkpt lat="45.13769" lon="3.47253">
        <ele>534.63</ele>
        <time>2021-01-17T12:34:26Z</time>
      </trkpt>
      <trkpt lat="45.13766" lon="3.47226">
        <ele>535.11</ele>
        <time>2021-01-17T12:34:41Z</time>
      </trkpt>
      <trkpt lat="45.13764" lon="3.47217">
        <ele>534.63</ele>
        <time>2021-01-17T12:34:47Z</time>
      </trkpt>
      <trkpt lat="45.13765" lon="3.47192">
        <ele>530.79</ele>
        <time>2021-01-17T12:35:02Z</time>
      </trkpt>
      <trkpt lat="45.13764" lon="3.47179">
        <ele>528.38</ele>
        <time>2021-01-17T12:35:16Z</time>
      </trkpt>
      <trkpt lat="45.13766" lon="3.47172">
        <ele>528.38</ele>
        <time>2021-01-17T12:35:20Z</time>
      </trkpt>
      <trkpt lat="45.1377" lon="3.47158">
        <ele>528.86</ele>
        <time>2021-01-17T12:35:35Z</time>
      </trkpt>
      <trkpt lat="45.1377" lon="3.47149">
        <ele>528.38</ele>
        <time>2021-01-17T12:35:40Z</time>
      </trkpt>
      <trkpt lat="45.13773" lon="3.47131">
        <ele>528.38</ele>
        <time>2021-01-17T12:35:52Z</time>
      </trkpt>
      <trkpt lat="45.13775" lon="3.47113">
        <ele>526.46</ele>
        <time>2021-01-17T12:36:02Z</time>
      </trkpt>
      <trkpt lat="45.13776" lon="3.4711">
        <ele>526.46</ele>
        <time>2021-01-17T12:36:04Z</time>
      </trkpt>
      <trkpt lat="45.13778" lon="3.47099">
        <ele>525.5</ele>
        <time>2021-01-17T12:36:10Z</time>
      </trkpt>
      <trkpt lat="45.13779" lon="3.47093">
        <ele>525.02</ele>
        <time>2021-01-17T12:36:14Z</time>
      </trkpt>
      <trkpt lat="45.1378" lon="3.4709">
        <ele>524.54</ele>
        <time>2021-01-17T12:36:16Z</time>
      </trkpt>
      <trkpt lat="45.13781" lon="3.47084">
        <ele>524.06</ele>
        <time>2021-01-17T12:36:19Z</time>
      </trkpt>
      <trkpt lat="45.13784" lon="3.47076">
        <ele>523.58</ele>
        <time>2021-01-17T12:36:24Z</time>
      </trkpt>
      <trkpt lat="45.1379" lon="3.47046">
        <ele>521.65</ele>
        <time>2021-01-17T12:36:40Z</time>
      </trkpt>
      <trkpt lat="45.13795" lon="3.47025">
        <ele>520.21</ele>
        <time>2021-01-17T12:36:53Z</time>
      </trkpt>
      <trkpt lat="45.138" lon="3.47001">
        <ele>518.29</ele>
        <time>2021-01-17T12:37:07Z</time>
      </trkpt>
      <trkpt lat="45.13803" lon="3.46973">
        <ele>515.4</ele>
        <time>2021-01-17T12:37:24Z</time>
      </trkpt>
      <trkpt lat="45.13805" lon="3.46951">
        <ele>511.56</ele>
        <time>2021-01-17T12:37:39Z</time>
      </trkpt>
      <trkpt lat="45.13805" lon="3.46939">
        <ele>510.12</ele>
        <time>2021-01-17T12:37:46Z</time>
      </trkpt>
      <trkpt lat="45.13801" lon="3.46911">
        <ele>508.19</ele>
        <time>2021-01-17T12:38:02Z</time>
      </trkpt>
      <trkpt lat="45.13797" lon="3.46904">
        <ele>508.67</ele>
        <time>2021-01-17T12:38:07Z</time>
      </trkpt>
      <trkpt lat="45.13793" lon="3.46897">
        <ele>509.16</ele>
        <time>2021-01-17T12:38:12Z</time>
      </trkpt>
      <trkpt lat="45.13785" lon="3.46874">
        <ele>511.08</ele>
        <time>2021-01-17T12:38:31Z</time>
      </trkpt>
      <trkpt lat="45.13779" lon="3.46856">
        <ele>513.48</ele>
        <time>2021-01-17T12:38:48Z</time>
      </trkpt>
      <trkpt lat="45.13768" lon="3.46828">
        <ele>517.81</ele>
        <time>2021-01-17T12:39:07Z</time>
      </trkpt>
      <trkpt lat="45.13754" lon="3.46802">
        <ele>519.25</ele>
        <time>2021-01-17T12:39:25Z</time>
      </trkpt>
      <trkpt lat="45.13742" lon="3.46775">
        <ele>519.73</ele>
        <time>2021-01-17T12:39:43Z</time>
      </trkpt>
      <trkpt lat="45.13739" lon="3.46767">
        <ele>518.29</ele>
        <time>2021-01-17T12:40:00Z</time>
      </trkpt>
      <trkpt lat="45.13739" lon="3.46766">
        <ele>517.81</ele>
        <time>2021-01-17T12:40:27Z</time>
      </trkpt>
      <trkpt lat="45.13736" lon="3.46764">
        <ele>514.92</ele>
        <time>2021-01-17T12:40:52Z</time>
      </trkpt>
      <trkpt lat="45.13736" lon="3.46767">
        <ele>513.96</ele>
        <time>2021-01-17T12:41:13Z</time>
      </trkpt>
      <trkpt lat="45.13734" lon="3.46771">
        <ele>514.44</ele>
        <time>2021-01-17T12:41:29Z</time>
      </trkpt>
      <trkpt lat="45.13734" lon="3.46772">
        <ele>513.96</ele>
        <time>2021-01-17T12:41:45Z</time>
      </trkpt>
      <trkpt lat="45.13713" lon="3.46795">
        <ele>513</ele>
        <time>2021-01-17T12:42:03Z</time>
      </trkpt>
      <trkpt lat="45.13694" lon="3.46819">
        <ele>513</ele>
        <time>2021-01-17T12:42:21Z</time>
      </trkpt>
      <trkpt lat="45.13671" lon="3.46845">
        <ele>514.44</ele>
        <time>2021-01-17T12:42:42Z</time>
      </trkpt>
      <trkpt lat="45.13648" lon="3.46869">
        <ele>516.85</ele>
        <time>2021-01-17T12:43:01Z</time>
      </trkpt>
      <trkpt lat="45.13644" lon="3.46873">
        <ele>517.81</ele>
        <time>2021-01-17T12:43:05Z</time>
      </trkpt>
      <trkpt lat="45.13614" lon="3.46903">
        <ele>521.65</ele>
        <time>2021-01-17T12:43:29Z</time>
      </trkpt>
      <trkpt lat="45.13595" lon="3.46924">
        <ele>525.02</ele>
        <time>2021-01-17T12:43:47Z</time>
      </trkpt>
      <trkpt lat="45.13578" lon="3.46943">
        <ele>529.82</ele>
        <time>2021-01-17T12:44:06Z</time>
      </trkpt>
      <trkpt lat="45.13567" lon="3.46971">
        <ele>533.19</ele>
        <time>2021-01-17T12:44:25Z</time>
      </trkpt>
      <trkpt lat="45.13558" lon="3.46985">
        <ele>534.15</ele>
        <time>2021-01-17T12:44:40Z</time>
      </trkpt>
      <trkpt lat="45.13543" lon="3.46994">
        <ele>537.99</ele>
        <time>2021-01-17T12:44:58Z</time>
      </trkpt>
      <trkpt lat="45.13531" lon="3.47009">
        <ele>541.36</ele>
        <time>2021-01-17T12:45:18Z</time>
      </trkpt>
      <trkpt lat="45.13503" lon="3.47025">
        <ele>546.17</ele>
        <time>2021-01-17T12:45:43Z</time>
      </trkpt>
      <trkpt lat="45.13486" lon="3.47021">
        <ele>555.78</ele>
        <time>2021-01-17T12:46:03Z</time>
      </trkpt>
      <trkpt lat="45.1347" lon="3.47013">
        <ele>558.66</ele>
        <time>2021-01-17T12:46:22Z</time>
      </trkpt>
      <trkpt lat="45.13451" lon="3.46995">
        <ele>560.59</ele>
        <time>2021-01-17T12:46:42Z</time>
      </trkpt>
      <trkpt lat="45.13445" lon="3.46987">
        <ele>560.11</ele>
        <time>2021-01-17T12:46:50Z</time>
      </trkpt>
      <trkpt lat="45.13433" lon="3.46967">
        <ele>565.39</ele>
        <time>2021-01-17T12:47:09Z</time>
      </trkpt>
      <trkpt lat="45.13418" lon="3.46949">
        <ele>567.32</ele>
        <time>2021-01-17T12:47:29Z</time>
      </trkpt>
      <trkpt lat="45.13401" lon="3.46938">
        <ele>569.24</ele>
        <time>2021-01-17T12:47:51Z</time>
      </trkpt>
      <trkpt lat="45.13374" lon="3.46927">
        <ele>580.77</ele>
        <time>2021-01-17T12:48:16Z</time>
      </trkpt>
      <trkpt lat="45.13356" lon="3.46926">
        <ele>584.62</ele>
        <time>2021-01-17T12:48:39Z</time>
      </trkpt>
      <trkpt lat="45.13347" lon="3.46924">
        <ele>584.14</ele>
        <time>2021-01-17T12:48:59Z</time>
      </trkpt>
      <trkpt lat="45.13338" lon="3.46924">
        <ele>582.22</ele>
        <time>2021-01-17T12:49:20Z</time>
      </trkpt>
      <trkpt lat="45.13334" lon="3.46921">
        <ele>580.29</ele>
        <time>2021-01-17T12:49:42Z</time>
      </trkpt>
      <trkpt lat="45.13331" lon="3.46919">
        <ele>579.33</ele>
        <time>2021-01-17T12:50:07Z</time>
      </trkpt>
      <trkpt lat="45.13315" lon="3.46902">
        <ele>580.29</ele>
        <time>2021-01-17T12:50:29Z</time>
      </trkpt>
      <trkpt lat="45.13297" lon="3.46892">
        <ele>581.73</ele>
        <time>2021-01-17T12:50:50Z</time>
      </trkpt>
      <trkpt lat="45.13279" lon="3.4689">
        <ele>588.46</ele>
        <time>2021-01-17T12:51:11Z</time>
      </trkpt>
      <trkpt lat="45.13263" lon="3.46892">
        <ele>594.71</ele>
        <time>2021-01-17T12:51:30Z</time>
      </trkpt>
      <trkpt lat="45.13241" lon="3.46902">
        <ele>605.29</ele>
        <time>2021-01-17T12:51:50Z</time>
      </trkpt>
      <trkpt lat="45.13234" lon="3.46905">
        <ele>606.73</ele>
        <time>2021-01-17T12:51:56Z</time>
      </trkpt>
      <trkpt lat="45.1322" lon="3.46914">
        <ele>612.02</ele>
        <time>2021-01-17T12:52:15Z</time>
      </trkpt>
      <trkpt lat="45.13208" lon="3.46919">
        <ele>615.86</ele>
        <time>2021-01-17T12:52:34Z</time>
      </trkpt>
      <trkpt lat="45.13202" lon="3.46923">
        <ele>612.02</ele>
        <time>2021-01-17T12:52:45Z</time>
      </trkpt>
      <trkpt lat="45.13196" lon="3.4693">
        <ele>612.98</ele>
        <time>2021-01-17T12:52:53Z</time>
      </trkpt>
      <trkpt lat="45.13174" lon="3.46951">
        <ele>611.06</ele>
        <time>2021-01-17T12:53:15Z</time>
      </trkpt>
      <trkpt lat="45.13164" lon="3.46973">
        <ele>612.98</ele>
        <time>2021-01-17T12:53:31Z</time>
      </trkpt>
      <trkpt lat="45.13157" lon="3.46997">
        <ele>614.9</ele>
        <time>2021-01-17T12:53:47Z</time>
      </trkpt>
      <trkpt lat="45.13144" lon="3.47013">
        <ele>613.46</ele>
        <time>2021-01-17T12:54:07Z</time>
      </trkpt>
      <trkpt lat="45.13124" lon="3.47031">
        <ele>614.42</ele>
        <time>2021-01-17T12:54:26Z</time>
      </trkpt>
      <trkpt lat="45.13108" lon="3.47053">
        <ele>617.78</ele>
        <time>2021-01-17T12:54:47Z</time>
      </trkpt>
      <trkpt lat="45.13092" lon="3.47069">
        <ele>620.67</ele>
        <time>2021-01-17T12:55:03Z</time>
      </trkpt>
      <trkpt lat="45.1308" lon="3.47076">
        <ele>623.07</ele>
        <time>2021-01-17T12:55:17Z</time>
      </trkpt>
      <trkpt lat="45.13068" lon="3.4708">
        <ele>624.99</ele>
        <time>2021-01-17T12:55:27Z</time>
      </trkpt>
      <trkpt lat="45.13056" lon="3.47084">
        <ele>626.44</ele>
        <time>2021-01-17T12:55:37Z</time>
      </trkpt>
      <trkpt lat="45.13053" lon="3.47084">
        <ele>626.92</ele>
        <time>2021-01-17T12:55:40Z</time>
      </trkpt>
      <trkpt lat="45.13048" lon="3.47088">
        <ele>627.4</ele>
        <time>2021-01-17T12:55:45Z</time>
      </trkpt>
      <trkpt lat="45.1304" lon="3.47097">
        <ele>627.88</ele>
        <time>2021-01-17T12:55:54Z</time>
      </trkpt>
      <trkpt lat="45.13027" lon="3.47105">
        <ele>628.36</ele>
        <time>2021-01-17T12:56:05Z</time>
      </trkpt>
      <trkpt lat="45.13023" lon="3.47109">
        <ele>627.88</ele>
        <time>2021-01-17T12:56:20Z</time>
      </trkpt>
      <trkpt lat="45.13021" lon="3.47116">
        <ele>627.88</ele>
        <time>2021-01-17T12:56:26Z</time>
      </trkpt>
      <trkpt lat="45.13016" lon="3.47127">
        <ele>628.36</ele>
        <time>2021-01-17T12:56:34Z</time>
      </trkpt>
      <trkpt lat="45.1301" lon="3.47149">
        <ele>631.24</ele>
        <time>2021-01-17T12:56:48Z</time>
      </trkpt>
      <trkpt lat="45.13004" lon="3.47154">
        <ele>632.2</ele>
        <time>2021-01-17T12:56:54Z</time>
      </trkpt>
      <trkpt lat="45.12993" lon="3.47166">
        <ele>634.13</ele>
        <time>2021-01-17T12:57:08Z</time>
      </trkpt>
      <trkpt lat="45.12993" lon="3.47166">
        <ele>637.97</ele>
        <time>2021-01-17T12:57:19Z</time>
      </trkpt>
      <trkpt lat="45.12993" lon="3.47166">
        <ele>637.49</ele>
        <time>2021-01-17T12:57:43Z</time>
      </trkpt>
      <trkpt lat="45.12968" lon="3.47178">
        <ele>638.45</ele>
        <time>2021-01-17T12:58:04Z</time>
      </trkpt>
      <trkpt lat="45.12946" lon="3.47181">
        <ele>640.86</ele>
        <time>2021-01-17T12:58:25Z</time>
      </trkpt>
      <trkpt lat="45.12931" lon="3.4719">
        <ele>643.74</ele>
        <time>2021-01-17T12:58:44Z</time>
      </trkpt>
      <trkpt lat="45.12933" lon="3.47192">
        <ele>642.78</ele>
        <time>2021-01-17T12:59:01Z</time>
      </trkpt>
      <trkpt lat="45.1293" lon="3.47189">
        <ele>643.26</ele>
        <time>2021-01-17T12:59:15Z</time>
      </trkpt>
      <trkpt lat="45.12925" lon="3.47187">
        <ele>642.78</ele>
        <time>2021-01-17T12:59:32Z</time>
      </trkpt>
      <trkpt lat="45.12919" lon="3.47182">
        <ele>642.78</ele>
        <time>2021-01-17T12:59:48Z</time>
      </trkpt>
      <trkpt lat="45.12911" lon="3.47177">
        <ele>643.26</ele>
        <time>2021-01-17T12:59:54Z</time>
      </trkpt>
      <trkpt lat="45.12895" lon="3.47166">
        <ele>644.7</ele>
        <time>2021-01-17T13:00:11Z</time>
      </trkpt>
      <trkpt lat="45.12889" lon="3.47163">
        <ele>645.18</ele>
        <time>2021-01-17T13:00:28Z</time>
      </trkpt>
      <trkpt lat="45.12888" lon="3.47164">
        <ele>644.7</ele>
        <time>2021-01-17T13:00:48Z</time>
      </trkpt>
      <trkpt lat="45.12875" lon="3.47155">
        <ele>646.62</ele>
        <time>2021-01-17T13:01:08Z</time>
      </trkpt>
      <trkpt lat="45.12851" lon="3.4714">
        <ele>654.31</ele>
        <time>2021-01-17T13:01:27Z</time>
      </trkpt>
      <trkpt lat="45.12837" lon="3.4713">
        <ele>660.08</ele>
        <time>2021-01-17T13:01:46Z</time>
      </trkpt>
      <trkpt lat="45.1282" lon="3.47123">
        <ele>662.49</ele>
        <time>2021-01-17T13:02:05Z</time>
      </trkpt>
      <trkpt lat="45.12805" lon="3.47107">
        <ele>667.29</ele>
        <time>2021-01-17T13:02:27Z</time>
      </trkpt>
      <trkpt lat="45.12785" lon="3.47101">
        <ele>675.46</ele>
        <time>2021-01-17T13:02:49Z</time>
      </trkpt>
      <trkpt lat="45.12765" lon="3.47095">
        <ele>676.91</ele>
        <time>2021-01-17T13:03:12Z</time>
      </trkpt>
      <trkpt lat="45.12744" lon="3.47088">
        <ele>683.15</ele>
        <time>2021-01-17T13:03:35Z</time>
      </trkpt>
      <trkpt lat="45.12722" lon="3.47082">
        <ele>687.96</ele>
        <time>2021-01-17T13:03:56Z</time>
      </trkpt>
      <trkpt lat="45.12701" lon="3.47073">
        <ele>687.48</ele>
        <time>2021-01-17T13:04:14Z</time>
      </trkpt>
      <trkpt lat="45.12691" lon="3.47073">
        <ele>687.96</ele>
        <time>2021-01-17T13:04:25Z</time>
      </trkpt>
      <trkpt lat="45.12675" lon="3.47065">
        <ele>690.36</ele>
        <time>2021-01-17T13:04:40Z</time>
      </trkpt>
      <trkpt lat="45.12664" lon="3.47058">
        <ele>691.81</ele>
        <time>2021-01-17T13:05:01Z</time>
      </trkpt>
      <trkpt lat="45.12649" lon="3.47053">
        <ele>695.65</ele>
        <time>2021-01-17T13:05:20Z</time>
      </trkpt>
      <trkpt lat="45.12629" lon="3.47046">
        <ele>695.65</ele>
        <time>2021-01-17T13:05:38Z</time>
      </trkpt>
      <trkpt lat="45.12613" lon="3.47037">
        <ele>695.65</ele>
        <time>2021-01-17T13:05:52Z</time>
      </trkpt>
      <trkpt lat="45.12605" lon="3.47031">
        <ele>695.17</ele>
        <time>2021-01-17T13:06:07Z</time>
      </trkpt>
      <trkpt lat="45.12601" lon="3.47027">
        <ele>694.69</ele>
        <time>2021-01-17T13:06:23Z</time>
      </trkpt>
      <trkpt lat="45.12588" lon="3.47016">
        <ele>693.25</ele>
        <time>2021-01-17T13:06:38Z</time>
      </trkpt>
      <trkpt lat="45.12574" lon="3.47004">
        <ele>692.77</ele>
        <time>2021-01-17T13:06:54Z</time>
      </trkpt>
      <trkpt lat="45.12559" lon="3.46994">
        <ele>692.77</ele>
        <time>2021-01-17T13:07:10Z</time>
      </trkpt>
      <trkpt lat="45.12545" lon="3.46982">
        <ele>691.33</ele>
        <time>2021-01-17T13:07:25Z</time>
      </trkpt>
      <trkpt lat="45.12532" lon="3.46971">
        <ele>690.84</ele>
        <time>2021-01-17T13:07:40Z</time>
      </trkpt>
      <trkpt lat="45.12519" lon="3.46962">
        <ele>690.84</ele>
        <time>2021-01-17T13:07:54Z</time>
      </trkpt>
      <trkpt lat="45.12516" lon="3.46963">
        <ele>689.88</ele>
        <time>2021-01-17T13:08:11Z</time>
      </trkpt>
      <trkpt lat="45.12514" lon="3.4696">
        <ele>689.88</ele>
        <time>2021-01-17T13:08:14Z</time>
      </trkpt>
      <trkpt lat="45.12503" lon="3.46952">
        <ele>691.33</ele>
        <time>2021-01-17T13:08:26Z</time>
      </trkpt>
      <trkpt lat="45.12486" lon="3.46938">
        <ele>691.81</ele>
        <time>2021-01-17T13:08:42Z</time>
      </trkpt>
      <trkpt lat="45.12475" lon="3.46926">
        <ele>694.21</ele>
        <time>2021-01-17T13:08:59Z</time>
      </trkpt>
      <trkpt lat="45.12468" lon="3.46918">
        <ele>695.17</ele>
        <time>2021-01-17T13:09:10Z</time>
      </trkpt>
      <trkpt lat="45.1246" lon="3.46901">
        <ele>697.57</ele>
        <time>2021-01-17T13:09:25Z</time>
      </trkpt>
      <trkpt lat="45.12449" lon="3.46871">
        <ele>700.94</ele>
        <time>2021-01-17T13:09:47Z</time>
      </trkpt>
      <trkpt lat="45.1244" lon="3.46841">
        <ele>706.71</ele>
        <time>2021-01-17T13:10:08Z</time>
      </trkpt>
      <trkpt lat="45.12435" lon="3.4683">
        <ele>709.11</ele>
        <time>2021-01-17T13:10:28Z</time>
      </trkpt>
      <trkpt lat="45.1243" lon="3.46817">
        <ele>710.55</ele>
        <time>2021-01-17T13:10:45Z</time>
      </trkpt>
      <trkpt lat="45.12409" lon="3.46788">
        <ele>710.07</ele>
        <time>2021-01-17T13:11:03Z</time>
      </trkpt>
      <trkpt lat="45.12391" lon="3.46768">
        <ele>706.23</ele>
        <time>2021-01-17T13:11:17Z</time>
      </trkpt>
      <trkpt lat="45.12374" lon="3.46748">
        <ele>703.34</ele>
        <time>2021-01-17T13:11:33Z</time>
      </trkpt>
      <trkpt lat="45.1236" lon="3.46739">
        <ele>701.42</ele>
        <time>2021-01-17T13:11:46Z</time>
      </trkpt>
      <trkpt lat="45.12341" lon="3.46732">
        <ele>700.46</ele>
        <time>2021-01-17T13:12:03Z</time>
      </trkpt>
      <trkpt lat="45.12319" lon="3.46722">
        <ele>699.02</ele>
        <time>2021-01-17T13:12:17Z</time>
      </trkpt>
      <trkpt lat="45.12299" lon="3.46711">
        <ele>699.5</ele>
        <time>2021-01-17T13:12:33Z</time>
      </trkpt>
      <trkpt lat="45.12281" lon="3.46698">
        <ele>700.46</ele>
        <time>2021-01-17T13:12:48Z</time>
      </trkpt>
      <trkpt lat="45.12269" lon="3.46692">
        <ele>699.98</ele>
        <time>2021-01-17T13:13:04Z</time>
      </trkpt>
      <trkpt lat="45.12254" lon="3.4668">
        <ele>699.98</ele>
        <time>2021-01-17T13:13:20Z</time>
      </trkpt>
      <trkpt lat="45.1225" lon="3.46677">
        <ele>699.98</ele>
        <time>2021-01-17T13:13:24Z</time>
      </trkpt>
      <trkpt lat="45.12237" lon="3.46666">
        <ele>704.78</ele>
        <time>2021-01-17T13:13:39Z</time>
      </trkpt>
      <trkpt lat="45.12221" lon="3.46658">
        <ele>709.59</ele>
        <time>2021-01-17T13:13:56Z</time>
      </trkpt>
      <trkpt lat="45.12205" lon="3.46654">
        <ele>711.99</ele>
        <time>2021-01-17T13:14:13Z</time>
      </trkpt>
      <trkpt lat="45.12185" lon="3.46649">
        <ele>717.76</ele>
        <time>2021-01-17T13:14:30Z</time>
      </trkpt>
      <trkpt lat="45.12167" lon="3.46639">
        <ele>721.61</ele>
        <time>2021-01-17T13:14:48Z</time>
      </trkpt>
      <trkpt lat="45.12149" lon="3.46636">
        <ele>725.93</ele>
        <time>2021-01-17T13:15:06Z</time>
      </trkpt>
      <trkpt lat="45.12141" lon="3.46637">
        <ele>726.89</ele>
        <time>2021-01-17T13:15:13Z</time>
      </trkpt>
      <trkpt lat="45.12126" lon="3.46648">
        <ele>729.78</ele>
        <time>2021-01-17T13:15:28Z</time>
      </trkpt>
      <trkpt lat="45.12109" lon="3.46659">
        <ele>732.18</ele>
        <time>2021-01-17T13:15:44Z</time>
      </trkpt>
      <trkpt lat="45.12095" lon="3.46669">
        <ele>736.03</ele>
        <time>2021-01-17T13:15:59Z</time>
      </trkpt>
      <trkpt lat="45.12086" lon="3.46676">
        <ele>738.43</ele>
        <time>2021-01-17T13:16:10Z</time>
      </trkpt>
      <trkpt lat="45.12074" lon="3.46684">
        <ele>739.87</ele>
        <time>2021-01-17T13:16:26Z</time>
      </trkpt>
      <trkpt lat="45.12065" lon="3.46695">
        <ele>741.79</ele>
        <time>2021-01-17T13:16:38Z</time>
      </trkpt>
      <trkpt lat="45.12055" lon="3.46709">
        <ele>742.76</ele>
        <time>2021-01-17T13:16:52Z</time>
      </trkpt>
      <trkpt lat="45.12052" lon="3.46712">
        <ele>743.24</ele>
        <time>2021-01-17T13:16:56Z</time>
      </trkpt>
      <trkpt lat="45.12044" lon="3.46724">
        <ele>745.16</ele>
        <time>2021-01-17T13:17:07Z</time>
      </trkpt>
      <trkpt lat="45.12041" lon="3.46727">
        <ele>745.64</ele>
        <time>2021-01-17T13:17:10Z</time>
      </trkpt>
      <trkpt lat="45.12027" lon="3.46739">
        <ele>746.6</ele>
        <time>2021-01-17T13:17:29Z</time>
      </trkpt>
      <trkpt lat="45.12021" lon="3.46739">
        <ele>747.08</ele>
        <time>2021-01-17T13:17:37Z</time>
      </trkpt>
      <trkpt lat="45.12012" lon="3.46734">
        <ele>747.56</ele>
        <time>2021-01-17T13:17:43Z</time>
      </trkpt>
      <trkpt lat="45.11997" lon="3.46717">
        <ele>746.12</ele>
        <time>2021-01-17T13:17:57Z</time>
      </trkpt>
      <trkpt lat="45.11985" lon="3.46707">
        <ele>745.16</ele>
        <time>2021-01-17T13:18:12Z</time>
      </trkpt>
      <trkpt lat="45.11972" lon="3.4669">
        <ele>745.16</ele>
        <time>2021-01-17T13:18:26Z</time>
      </trkpt>
      <trkpt lat="45.11958" lon="3.46674">
        <ele>744.68</ele>
        <time>2021-01-17T13:18:40Z</time>
      </trkpt>
      <trkpt lat="45.11943" lon="3.46663">
        <ele>742.28</ele>
        <time>2021-01-17T13:18:54Z</time>
      </trkpt>
      <trkpt lat="45.11927" lon="3.46652">
        <ele>742.28</ele>
        <time>2021-01-17T13:19:08Z</time>
      </trkpt>
      <trkpt lat="45.11906" lon="3.46643">
        <ele>743.72</ele>
        <time>2021-01-17T13:19:25Z</time>
      </trkpt>
      <trkpt lat="45.11894" lon="3.46633">
        <ele>745.64</ele>
        <time>2021-01-17T13:19:39Z</time>
      </trkpt>
      <trkpt lat="45.11883" lon="3.46624">
        <ele>747.56</ele>
        <time>2021-01-17T13:19:56Z</time>
      </trkpt>
      <trkpt lat="45.11871" lon="3.46612">
        <ele>748.04</ele>
        <time>2021-01-17T13:20:10Z</time>
      </trkpt>
      <trkpt lat="45.11857" lon="3.46598">
        <ele>749</ele>
        <time>2021-01-17T13:20:25Z</time>
      </trkpt>
      <trkpt lat="45.11844" lon="3.46584">
        <ele>749.49</ele>
        <time>2021-01-17T13:20:41Z</time>
      </trkpt>
      <trkpt lat="45.11828" lon="3.46566">
        <ele>749.49</ele>
        <time>2021-01-17T13:20:58Z</time>
      </trkpt>
      <trkpt lat="45.11811" lon="3.46549">
        <ele>750.45</ele>
        <time>2021-01-17T13:21:17Z</time>
      </trkpt>
      <trkpt lat="45.11793" lon="3.46533">
        <ele>750.45</ele>
        <time>2021-01-17T13:21:36Z</time>
      </trkpt>
      <trkpt lat="45.11782" lon="3.46522">
        <ele>751.41</ele>
        <time>2021-01-17T13:21:47Z</time>
      </trkpt>
      <trkpt lat="45.11771" lon="3.46511">
        <ele>753.33</ele>
        <time>2021-01-17T13:22:02Z</time>
      </trkpt>
      <trkpt lat="45.11768" lon="3.46509">
        <ele>753.81</ele>
        <time>2021-01-17T13:22:05Z</time>
      </trkpt>
      <trkpt lat="45.11753" lon="3.46496">
        <ele>754.29</ele>
        <time>2021-01-17T13:22:19Z</time>
      </trkpt>
      <trkpt lat="45.1174" lon="3.46483">
        <ele>755.73</ele>
        <time>2021-01-17T13:22:32Z</time>
      </trkpt>
      <trkpt lat="45.11724" lon="3.46467">
        <ele>756.21</ele>
        <time>2021-01-17T13:22:47Z</time>
      </trkpt>
      <trkpt lat="45.11703" lon="3.46452">
        <ele>757.66</ele>
        <time>2021-01-17T13:23:07Z</time>
      </trkpt>
      <trkpt lat="45.11678" lon="3.46439">
        <ele>761.5</ele>
        <time>2021-01-17T13:23:27Z</time>
      </trkpt>
      <trkpt lat="45.11657" lon="3.46431">
        <ele>763.9</ele>
        <time>2021-01-17T13:23:44Z</time>
      </trkpt>
      <trkpt lat="45.11648" lon="3.46426">
        <ele>765.35</ele>
        <time>2021-01-17T13:23:51Z</time>
      </trkpt>
      <trkpt lat="45.11624" lon="3.46415">
        <ele>765.83</ele>
        <time>2021-01-17T13:24:10Z</time>
      </trkpt>
      <trkpt lat="45.11604" lon="3.46406">
        <ele>766.79</ele>
        <time>2021-01-17T13:24:27Z</time>
      </trkpt>
      <trkpt lat="45.1159" lon="3.46398">
        <ele>768.23</ele>
        <time>2021-01-17T13:24:39Z</time>
      </trkpt>
      <trkpt lat="45.11577" lon="3.46385">
        <ele>768.71</ele>
        <time>2021-01-17T13:24:52Z</time>
      </trkpt>
      <trkpt lat="45.11559" lon="3.46369">
        <ele>767.27</ele>
        <time>2021-01-17T13:25:09Z</time>
      </trkpt>
      <trkpt lat="45.11555" lon="3.46366">
        <ele>767.27</ele>
        <time>2021-01-17T13:25:13Z</time>
      </trkpt>
      <trkpt lat="45.11539" lon="3.46349">
        <ele>766.79</ele>
        <time>2021-01-17T13:25:28Z</time>
      </trkpt>
      <trkpt lat="45.1153" lon="3.46343">
        <ele>766.31</ele>
        <time>2021-01-17T13:25:37Z</time>
      </trkpt>
      <trkpt lat="45.11519" lon="3.46338">
        <ele>766.31</ele>
        <time>2021-01-17T13:25:45Z</time>
      </trkpt>
      <trkpt lat="45.11509" lon="3.46336">
        <ele>766.31</ele>
        <time>2021-01-17T13:25:58Z</time>
      </trkpt>
      <trkpt lat="45.11484" lon="3.46333">
        <ele>763.42</ele>
        <time>2021-01-17T13:26:16Z</time>
      </trkpt>
      <trkpt lat="45.11464" lon="3.46329">
        <ele>761.02</ele>
        <time>2021-01-17T13:26:32Z</time>
      </trkpt>
      <trkpt lat="45.11462" lon="3.46327">
        <ele>760.54</ele>
        <time>2021-01-17T13:26:35Z</time>
      </trkpt>
      <trkpt lat="45.11458" lon="3.46325">
        <ele>760.06</ele>
        <time>2021-01-17T13:26:51Z</time>
      </trkpt>
      <trkpt lat="45.11447" lon="3.46319">
        <ele>759.1</ele>
        <time>2021-01-17T13:27:13Z</time>
      </trkpt>
      <trkpt lat="45.11427" lon="3.463">
        <ele>761.02</ele>
        <time>2021-01-17T13:27:29Z</time>
      </trkpt>
      <trkpt lat="45.11408" lon="3.46289">
        <ele>764.87</ele>
        <time>2021-01-17T13:27:48Z</time>
      </trkpt>
      <trkpt lat="45.1139" lon="3.46277">
        <ele>765.35</ele>
        <time>2021-01-17T13:28:04Z</time>
      </trkpt>
      <trkpt lat="45.1138" lon="3.46269">
        <ele>766.31</ele>
        <time>2021-01-17T13:28:17Z</time>
      </trkpt>
      <trkpt lat="45.1136" lon="3.46257">
        <ele>767.27</ele>
        <time>2021-01-17T13:28:35Z</time>
      </trkpt>
      <trkpt lat="45.11343" lon="3.46245">
        <ele>768.71</ele>
        <time>2021-01-17T13:28:52Z</time>
      </trkpt>
      <trkpt lat="45.11326" lon="3.46229">
        <ele>771.11</ele>
        <time>2021-01-17T13:29:10Z</time>
      </trkpt>
      <trkpt lat="45.11315" lon="3.46223">
        <ele>775.92</ele>
        <time>2021-01-17T13:29:21Z</time>
      </trkpt>
      <trkpt lat="45.11306" lon="3.46216">
        <ele>778.32</ele>
        <time>2021-01-17T13:29:30Z</time>
      </trkpt>
      <trkpt lat="45.11306" lon="3.46215">
        <ele>778.32</ele>
        <time>2021-01-17T13:29:31Z</time>
      </trkpt>
      <trkpt lat="45.11301" lon="3.46211">
        <ele>779.29</ele>
        <time>2021-01-17T13:29:36Z</time>
      </trkpt>
      <trkpt lat="45.11291" lon="3.46204">
        <ele>782.65</ele>
        <time>2021-01-17T13:29:46Z</time>
      </trkpt>
      <trkpt lat="45.11282" lon="3.46196">
        <ele>785.05</ele>
        <time>2021-01-17T13:29:56Z</time>
      </trkpt>
      <trkpt lat="45.11273" lon="3.46193">
        <ele>787.94</ele>
        <time>2021-01-17T13:30:05Z</time>
      </trkpt>
      <trkpt lat="45.11269" lon="3.4619">
        <ele>788.42</ele>
        <time>2021-01-17T13:30:10Z</time>
      </trkpt>
      <trkpt lat="45.11258" lon="3.46183">
        <ele>789.86</ele>
        <time>2021-01-17T13:30:20Z</time>
      </trkpt>
      <trkpt lat="45.11247" lon="3.46182">
        <ele>792.74</ele>
        <time>2021-01-17T13:30:35Z</time>
      </trkpt>
      <trkpt lat="45.11245" lon="3.46182">
        <ele>792.74</ele>
        <time>2021-01-17T13:30:49Z</time>
      </trkpt>
      <trkpt lat="45.1123" lon="3.46186">
        <ele>793.22</ele>
        <time>2021-01-17T13:31:02Z</time>
      </trkpt>
      <trkpt lat="45.11216" lon="3.46192">
        <ele>792.74</ele>
        <time>2021-01-17T13:31:17Z</time>
      </trkpt>
      <trkpt lat="45.11211" lon="3.46196">
        <ele>790.34</ele>
        <time>2021-01-17T13:31:33Z</time>
      </trkpt>
      <trkpt lat="45.112" lon="3.46204">
        <ele>791.3</ele>
        <time>2021-01-17T13:31:45Z</time>
      </trkpt>
      <trkpt lat="45.11188" lon="3.46209">
        <ele>791.78</ele>
        <time>2021-01-17T13:31:59Z</time>
      </trkpt>
      <trkpt lat="45.11179" lon="3.46213">
        <ele>790.34</ele>
        <time>2021-01-17T13:32:12Z</time>
      </trkpt>
      <trkpt lat="45.11176" lon="3.46212">
        <ele>790.82</ele>
        <time>2021-01-17T13:32:17Z</time>
      </trkpt>
      <trkpt lat="45.11159" lon="3.46207">
        <ele>790.34</ele>
        <time>2021-01-17T13:32:31Z</time>
      </trkpt>
      <trkpt lat="45.11148" lon="3.46202">
        <ele>791.3</ele>
        <time>2021-01-17T13:32:41Z</time>
      </trkpt>
      <trkpt lat="45.11145" lon="3.462">
        <ele>791.78</ele>
        <time>2021-01-17T13:32:44Z</time>
      </trkpt>
      <trkpt lat="45.11131" lon="3.46199">
        <ele>793.71</ele>
        <time>2021-01-17T13:32:55Z</time>
      </trkpt>
      <trkpt lat="45.11106" lon="3.46203">
        <ele>795.63</ele>
        <time>2021-01-17T13:33:15Z</time>
      </trkpt>
      <trkpt lat="45.111" lon="3.46203">
        <ele>794.19</ele>
        <time>2021-01-17T13:33:23Z</time>
      </trkpt>
      <trkpt lat="45.11089" lon="3.46201">
        <ele>793.22</ele>
        <time>2021-01-17T13:33:31Z</time>
      </trkpt>
      <trkpt lat="45.11084" lon="3.46199">
        <ele>792.74</ele>
        <time>2021-01-17T13:33:35Z</time>
      </trkpt>
      <trkpt lat="45.11063" lon="3.46191">
        <ele>789.86</ele>
        <time>2021-01-17T13:33:52Z</time>
      </trkpt>
      <trkpt lat="45.11043" lon="3.4618">
        <ele>788.9</ele>
        <time>2021-01-17T13:34:08Z</time>
      </trkpt>
      <trkpt lat="45.11029" lon="3.46175">
        <ele>788.42</ele>
        <time>2021-01-17T13:34:20Z</time>
      </trkpt>
      <trkpt lat="45.11011" lon="3.46165">
        <ele>788.9</ele>
        <time>2021-01-17T13:34:36Z</time>
      </trkpt>
      <trkpt lat="45.10992" lon="3.46158">
        <ele>789.38</ele>
        <time>2021-01-17T13:34:50Z</time>
      </trkpt>
      <trkpt lat="45.10988" lon="3.46151">
        <ele>790.34</ele>
        <time>2021-01-17T13:34:56Z</time>
      </trkpt>
      <trkpt lat="45.10983" lon="3.46126">
        <ele>790.34</ele>
        <time>2021-01-17T13:35:14Z</time>
      </trkpt>
      <trkpt lat="45.1098" lon="3.46113">
        <ele>789.38</ele>
        <time>2021-01-17T13:35:27Z</time>
      </trkpt>
      <trkpt lat="45.10978" lon="3.46116">
        <ele>789.38</ele>
        <time>2021-01-17T13:35:33Z</time>
      </trkpt>
      <trkpt lat="45.10967" lon="3.46153">
        <ele>789.86</ele>
        <time>2021-01-17T13:35:53Z</time>
      </trkpt>
      <trkpt lat="45.10962" lon="3.46172">
        <ele>790.34</ele>
        <time>2021-01-17T13:36:05Z</time>
      </trkpt>
      <trkpt lat="45.10957" lon="3.46176">
        <ele>790.34</ele>
        <time>2021-01-17T13:36:09Z</time>
      </trkpt>
      <trkpt lat="45.10931" lon="3.4619">
        <ele>791.78</ele>
        <time>2021-01-17T13:36:27Z</time>
      </trkpt>
      <trkpt lat="45.10912" lon="3.46192">
        <ele>793.71</ele>
        <time>2021-01-17T13:36:41Z</time>
      </trkpt>
      <trkpt lat="45.10895" lon="3.4619">
        <ele>794.67</ele>
        <time>2021-01-17T13:36:52Z</time>
      </trkpt>
      <trkpt lat="45.10881" lon="3.46188">
        <ele>795.63</ele>
        <time>2021-01-17T13:37:02Z</time>
      </trkpt>
      <trkpt lat="45.10856" lon="3.46188">
        <ele>796.59</ele>
        <time>2021-01-17T13:37:17Z</time>
      </trkpt>
      <trkpt lat="45.10843" lon="3.46192">
        <ele>798.03</ele>
        <time>2021-01-17T13:37:28Z</time>
      </trkpt>
      <trkpt lat="45.10833" lon="3.46194">
        <ele>799.95</ele>
        <time>2021-01-17T13:37:36Z</time>
      </trkpt>
      <trkpt lat="45.10821" lon="3.46198">
        <ele>800.92</ele>
        <time>2021-01-17T13:37:45Z</time>
      </trkpt>
      <trkpt lat="45.1082" lon="3.46199">
        <ele>800.92</ele>
        <time>2021-01-17T13:37:49Z</time>
      </trkpt>
      <trkpt lat="45.10802" lon="3.4622">
        <ele>800.92</ele>
        <time>2021-01-17T13:38:05Z</time>
      </trkpt>
      <trkpt lat="45.10788" lon="3.46237">
        <ele>799.95</ele>
        <time>2021-01-17T13:38:19Z</time>
      </trkpt>
      <trkpt lat="45.10773" lon="3.46257">
        <ele>798.99</ele>
        <time>2021-01-17T13:38:34Z</time>
      </trkpt>
      <trkpt lat="45.10761" lon="3.46278">
        <ele>799.47</ele>
        <time>2021-01-17T13:38:49Z</time>
      </trkpt>
      <trkpt lat="45.10755" lon="3.46298">
        <ele>797.55</ele>
        <time>2021-01-17T13:39:05Z</time>
      </trkpt>
      <trkpt lat="45.10754" lon="3.46299">
        <ele>797.07</ele>
        <time>2021-01-17T13:39:06Z</time>
      </trkpt>
      <trkpt lat="45.10749" lon="3.46303">
        <ele>796.11</ele>
        <time>2021-01-17T13:39:11Z</time>
      </trkpt>
      <trkpt lat="45.10733" lon="3.46309">
        <ele>792.74</ele>
        <time>2021-01-17T13:39:27Z</time>
      </trkpt>
      <trkpt lat="45.10711" lon="3.46308">
        <ele>793.22</ele>
        <time>2021-01-17T13:39:44Z</time>
      </trkpt>
      <trkpt lat="45.10691" lon="3.46311">
        <ele>794.67</ele>
        <time>2021-01-17T13:40:01Z</time>
      </trkpt>
      <trkpt lat="45.10687" lon="3.46314">
        <ele>796.11</ele>
        <time>2021-01-17T13:40:14Z</time>
      </trkpt>
      <trkpt lat="45.1069" lon="3.46329">
        <ele>793.71</ele>
        <time>2021-01-17T13:40:28Z</time>
      </trkpt>
      <trkpt lat="45.10693" lon="3.46335">
        <ele>791.3</ele>
        <time>2021-01-17T13:40:34Z</time>
      </trkpt>
      <trkpt lat="45.10697" lon="3.46341">
        <ele>789.38</ele>
        <time>2021-01-17T13:40:40Z</time>
      </trkpt>
      <trkpt lat="45.10711" lon="3.46344">
        <ele>787.46</ele>
        <time>2021-01-17T13:40:54Z</time>
      </trkpt>
      <trkpt lat="45.10715" lon="3.46346">
        <ele>785.53</ele>
        <time>2021-01-17T13:41:07Z</time>
      </trkpt>
      <trkpt lat="45.10706" lon="3.46345">
        <ele>785.53</ele>
        <time>2021-01-17T13:41:20Z</time>
      </trkpt>
      <trkpt lat="45.10693" lon="3.46335">
        <ele>786.98</ele>
        <time>2021-01-17T13:41:37Z</time>
      </trkpt>
      <trkpt lat="45.10684" lon="3.46325">
        <ele>789.86</ele>
        <time>2021-01-17T13:41:51Z</time>
      </trkpt>
      <trkpt lat="45.10678" lon="3.46328">
        <ele>793.71</ele>
        <time>2021-01-17T13:42:07Z</time>
      </trkpt>
      <trkpt lat="45.10673" lon="3.46331">
        <ele>794.19</ele>
        <time>2021-01-17T13:42:22Z</time>
      </trkpt>
      <trkpt lat="45.10657" lon="3.4635">
        <ele>795.63</ele>
        <time>2021-01-17T13:42:38Z</time>
      </trkpt>
      <trkpt lat="45.10654" lon="3.46356">
        <ele>795.63</ele>
        <time>2021-01-17T13:42:42Z</time>
      </trkpt>
      <trkpt lat="45.1064" lon="3.46382">
        <ele>797.07</ele>
        <time>2021-01-17T13:43:00Z</time>
      </trkpt>
      <trkpt lat="45.10624" lon="3.46405">
        <ele>798.03</ele>
        <time>2021-01-17T13:43:18Z</time>
      </trkpt>
      <trkpt lat="45.1061" lon="3.46426">
        <ele>798.51</ele>
        <time>2021-01-17T13:43:34Z</time>
      </trkpt>
      <trkpt lat="45.10595" lon="3.46448">
        <ele>796.11</ele>
        <time>2021-01-17T13:43:51Z</time>
      </trkpt>
      <trkpt lat="45.10587" lon="3.46459">
        <ele>796.11</ele>
        <time>2021-01-17T13:44:00Z</time>
      </trkpt>
      <trkpt lat="45.10579" lon="3.46467">
        <ele>795.63</ele>
        <time>2021-01-17T13:44:13Z</time>
      </trkpt>
      <trkpt lat="45.10567" lon="3.46477">
        <ele>794.67</ele>
        <time>2021-01-17T13:44:26Z</time>
      </trkpt>
      <trkpt lat="45.10555" lon="3.46489">
        <ele>793.71</ele>
        <time>2021-01-17T13:44:39Z</time>
      </trkpt>
      <trkpt lat="45.10538" lon="3.46507">
        <ele>792.26</ele>
        <time>2021-01-17T13:44:57Z</time>
      </trkpt>
      <trkpt lat="45.10531" lon="3.46514">
        <ele>792.26</ele>
        <time>2021-01-17T13:45:09Z</time>
      </trkpt>
      <trkpt lat="45.10509" lon="3.46538">
        <ele>786.5</ele>
        <time>2021-01-17T13:45:30Z</time>
      </trkpt>
      <trkpt lat="45.10492" lon="3.46554">
        <ele>785.05</ele>
        <time>2021-01-17T13:45:45Z</time>
      </trkpt>
      <trkpt lat="45.10479" lon="3.46559">
        <ele>781.69</ele>
        <time>2021-01-17T13:46:01Z</time>
      </trkpt>
      <trkpt lat="45.10468" lon="3.46561">
        <ele>779.77</ele>
        <time>2021-01-17T13:46:16Z</time>
      </trkpt>
      <trkpt lat="45.10455" lon="3.4656">
        <ele>778.81</ele>
        <time>2021-01-17T13:46:32Z</time>
      </trkpt>
      <trkpt lat="45.10436" lon="3.46556">
        <ele>776.4</ele>
        <time>2021-01-17T13:46:47Z</time>
      </trkpt>
      <trkpt lat="45.10415" lon="3.46553">
        <ele>772.56</ele>
        <time>2021-01-17T13:47:02Z</time>
      </trkpt>
      <trkpt lat="45.10391" lon="3.46559">
        <ele>768.71</ele>
        <time>2021-01-17T13:47:22Z</time>
      </trkpt>
      <trkpt lat="45.10381" lon="3.46567">
        <ele>766.31</ele>
        <time>2021-01-17T13:47:32Z</time>
      </trkpt>
      <trkpt lat="45.10357" lon="3.46588">
        <ele>761.5</ele>
        <time>2021-01-17T13:47:52Z</time>
      </trkpt>
      <trkpt lat="45.10335" lon="3.46597">
        <ele>758.62</ele>
        <time>2021-01-17T13:48:10Z</time>
      </trkpt>
      <trkpt lat="45.10299" lon="3.46593">
        <ele>755.73</ele>
        <time>2021-01-17T13:48:37Z</time>
      </trkpt>
      <trkpt lat="45.10285" lon="3.46604">
        <ele>748.52</ele>
        <time>2021-01-17T13:48:53Z</time>
      </trkpt>
      <trkpt lat="45.10259" lon="3.46634">
        <ele>739.39</ele>
        <time>2021-01-17T13:49:17Z</time>
      </trkpt>
      <trkpt lat="45.10247" lon="3.46655">
        <ele>736.51</ele>
        <time>2021-01-17T13:49:34Z</time>
      </trkpt>
      <trkpt lat="45.10238" lon="3.46689">
        <ele>735.07</ele>
        <time>2021-01-17T13:49:53Z</time>
      </trkpt>
      <trkpt lat="45.10228" lon="3.46727">
        <ele>739.87</ele>
        <time>2021-01-17T13:50:17Z</time>
      </trkpt>
      <trkpt lat="45.10224" lon="3.4674">
        <ele>744.2</ele>
        <time>2021-01-17T13:50:35Z</time>
      </trkpt>
      <trkpt lat="45.10221" lon="3.46762">
        <ele>740.35</ele>
        <time>2021-01-17T13:50:48Z</time>
      </trkpt>
      <trkpt lat="45.10218" lon="3.46773">
        <ele>739.87</ele>
        <time>2021-01-17T13:51:01Z</time>
      </trkpt>
      <trkpt lat="45.10213" lon="3.46792">
        <ele>738.43</ele>
        <time>2021-01-17T13:51:18Z</time>
      </trkpt>
      <trkpt lat="45.10207" lon="3.46815">
        <ele>735.55</ele>
        <time>2021-01-17T13:51:33Z</time>
      </trkpt>
      <trkpt lat="45.10197" lon="3.46841">
        <ele>731.7</ele>
        <time>2021-01-17T13:51:49Z</time>
      </trkpt>
      <trkpt lat="45.10193" lon="3.46855">
        <ele>731.7</ele>
        <time>2021-01-17T13:52:02Z</time>
      </trkpt>
      <trkpt lat="45.10186" lon="3.46884">
        <ele>729.3</ele>
        <time>2021-01-17T13:52:19Z</time>
      </trkpt>
      <trkpt lat="45.10185" lon="3.46906">
        <ele>727.86</ele>
        <time>2021-01-17T13:52:31Z</time>
      </trkpt>
      <trkpt lat="45.10188" lon="3.46915">
        <ele>727.37</ele>
        <time>2021-01-17T13:52:37Z</time>
      </trkpt>
      <trkpt lat="45.10192" lon="3.46942">
        <ele>725.45</ele>
        <time>2021-01-17T13:52:55Z</time>
      </trkpt>
      <trkpt lat="45.10192" lon="3.46949">
        <ele>725.45</ele>
        <time>2021-01-17T13:53:11Z</time>
      </trkpt>
      <trkpt lat="45.1019" lon="3.4695">
        <ele>725.45</ele>
        <time>2021-01-17T13:53:13Z</time>
      </trkpt>
      <trkpt lat="45.10184" lon="3.46975">
        <ele>724.97</ele>
        <time>2021-01-17T13:53:28Z</time>
      </trkpt>
      <trkpt lat="45.10184" lon="3.47002">
        <ele>724.49</ele>
        <time>2021-01-17T13:53:45Z</time>
      </trkpt>
      <trkpt lat="45.10182" lon="3.4701">
        <ele>724.49</ele>
        <time>2021-01-17T13:54:03Z</time>
      </trkpt>
      <trkpt lat="45.10175" lon="3.47031">
        <ele>722.09</ele>
        <time>2021-01-17T13:54:17Z</time>
      </trkpt>
      <trkpt lat="45.10164" lon="3.47054">
        <ele>720.16</ele>
        <time>2021-01-17T13:54:34Z</time>
      </trkpt>
      <trkpt lat="45.10164" lon="3.47077">
        <ele>716.32</ele>
        <time>2021-01-17T13:54:51Z</time>
      </trkpt>
      <trkpt lat="45.10171" lon="3.47109">
        <ele>711.03</ele>
        <time>2021-01-17T13:55:08Z</time>
      </trkpt>
      <trkpt lat="45.10175" lon="3.47124">
        <ele>709.11</ele>
        <time>2021-01-17T13:55:18Z</time>
      </trkpt>
      <trkpt lat="45.1018" lon="3.47136">
        <ele>708.63</ele>
        <time>2021-01-17T13:55:27Z</time>
      </trkpt>
      <trkpt lat="45.10187" lon="3.47151">
        <ele>706.23</ele>
        <time>2021-01-17T13:55:36Z</time>
      </trkpt>
      <trkpt lat="45.10195" lon="3.47167">
        <ele>703.34</ele>
        <time>2021-01-17T13:55:46Z</time>
      </trkpt>
      <trkpt lat="45.10203" lon="3.47183">
        <ele>699.98</ele>
        <time>2021-01-17T13:55:57Z</time>
      </trkpt>
      <trkpt lat="45.10208" lon="3.47188">
        <ele>698.53</ele>
        <time>2021-01-17T13:56:10Z</time>
      </trkpt>
      <trkpt lat="45.10212" lon="3.47193">
        <ele>697.57</ele>
        <time>2021-01-17T13:56:14Z</time>
      </trkpt>
      <trkpt lat="45.10213" lon="3.47195">
        <ele>697.57</ele>
        <time>2021-01-17T13:56:16Z</time>
      </trkpt>
      <trkpt lat="45.10226" lon="3.47214">
        <ele>692.77</ele>
        <time>2021-01-17T13:56:31Z</time>
      </trkpt>
      <trkpt lat="45.10235" lon="3.47234">
        <ele>689.4</ele>
        <time>2021-01-17T13:56:44Z</time>
      </trkpt>
      <trkpt lat="45.10238" lon="3.47239">
        <ele>688.44</ele>
        <time>2021-01-17T13:56:48Z</time>
      </trkpt>
      <trkpt lat="45.10245" lon="3.47256">
        <ele>686.52</ele>
        <time>2021-01-17T13:57:03Z</time>
      </trkpt>
      <trkpt lat="45.10255" lon="3.47267">
        <ele>686.52</ele>
        <time>2021-01-17T13:57:16Z</time>
      </trkpt>
      <trkpt lat="45.1026" lon="3.47278">
        <ele>684.12</ele>
        <time>2021-01-17T13:57:23Z</time>
      </trkpt>
      <trkpt lat="45.10264" lon="3.4729">
        <ele>682.19</ele>
        <time>2021-01-17T13:57:37Z</time>
      </trkpt>
      <trkpt lat="45.10262" lon="3.47324">
        <ele>677.39</ele>
        <time>2021-01-17T13:57:59Z</time>
      </trkpt>
      <trkpt lat="45.10251" lon="3.47356">
        <ele>672.58</ele>
        <time>2021-01-17T13:58:17Z</time>
      </trkpt>
      <trkpt lat="45.10243" lon="3.4737">
        <ele>674.98</ele>
        <time>2021-01-17T13:58:26Z</time>
      </trkpt>
      <trkpt lat="45.10236" lon="3.47381">
        <ele>674.02</ele>
        <time>2021-01-17T13:58:34Z</time>
      </trkpt>
      <trkpt lat="45.10235" lon="3.47398">
        <ele>672.58</ele>
        <time>2021-01-17T13:58:48Z</time>
      </trkpt>
      <trkpt lat="45.10234" lon="3.47417">
        <ele>670.18</ele>
        <time>2021-01-17T13:59:04Z</time>
      </trkpt>
      <trkpt lat="45.10237" lon="3.47422">
        <ele>669.7</ele>
        <time>2021-01-17T13:59:22Z</time>
      </trkpt>
      <trkpt lat="45.10237" lon="3.47426">
        <ele>670.18</ele>
        <time>2021-01-17T13:59:40Z</time>
      </trkpt>
      <trkpt lat="45.10236" lon="3.47427">
        <ele>670.66</ele>
        <time>2021-01-17T13:59:59Z</time>
      </trkpt>
      <trkpt lat="45.10235" lon="3.47435">
        <ele>670.18</ele>
        <time>2021-01-17T14:00:20Z</time>
      </trkpt>
      <trkpt lat="45.10235" lon="3.47454">
        <ele>669.7</ele>
        <time>2021-01-17T14:00:32Z</time>
      </trkpt>
      <trkpt lat="45.10237" lon="3.4748">
        <ele>668.25</ele>
        <time>2021-01-17T14:00:47Z</time>
      </trkpt>
      <trkpt lat="45.10242" lon="3.47499">
        <ele>666.81</ele>
        <time>2021-01-17T14:00:59Z</time>
      </trkpt>
      <trkpt lat="45.10248" lon="3.47527">
        <ele>664.89</ele>
        <time>2021-01-17T14:01:14Z</time>
      </trkpt>
      <trkpt lat="45.10253" lon="3.47548">
        <ele>662.01</ele>
        <time>2021-01-17T14:01:28Z</time>
      </trkpt>
      <trkpt lat="45.10263" lon="3.4757">
        <ele>665.37</ele>
        <time>2021-01-17T14:01:41Z</time>
      </trkpt>
      <trkpt lat="45.10273" lon="3.47588">
        <ele>665.37</ele>
        <time>2021-01-17T14:01:57Z</time>
      </trkpt>
      <trkpt lat="45.10281" lon="3.47613">
        <ele>664.89</ele>
        <time>2021-01-17T14:02:12Z</time>
      </trkpt>
      <trkpt lat="45.10285" lon="3.47624">
        <ele>663.45</ele>
        <time>2021-01-17T14:02:26Z</time>
      </trkpt>
      <trkpt lat="45.10292" lon="3.47648">
        <ele>658.16</ele>
        <time>2021-01-17T14:02:42Z</time>
      </trkpt>
      <trkpt lat="45.103" lon="3.47676">
        <ele>659.12</ele>
        <time>2021-01-17T14:02:56Z</time>
      </trkpt>
      <trkpt lat="45.10309" lon="3.47693">
        <ele>657.68</ele>
        <time>2021-01-17T14:03:09Z</time>
      </trkpt>
      <trkpt lat="45.10316" lon="3.47708">
        <ele>654.31</ele>
        <time>2021-01-17T14:03:23Z</time>
      </trkpt>
      <trkpt lat="45.10327" lon="3.47725">
        <ele>649.03</ele>
        <time>2021-01-17T14:03:37Z</time>
      </trkpt>
      <trkpt lat="45.1033" lon="3.47735">
        <ele>649.03</ele>
        <time>2021-01-17T14:03:52Z</time>
      </trkpt>
      <trkpt lat="45.1034" lon="3.47753">
        <ele>641.34</ele>
        <time>2021-01-17T14:04:09Z</time>
      </trkpt>
      <trkpt lat="45.1036" lon="3.47778">
        <ele>640.38</ele>
        <time>2021-01-17T14:04:27Z</time>
      </trkpt>
      <trkpt lat="45.10378" lon="3.4779">
        <ele>638.93</ele>
        <time>2021-01-17T14:04:47Z</time>
      </trkpt>
      <trkpt lat="45.10386" lon="3.47816">
        <ele>637.49</ele>
        <time>2021-01-17T14:05:04Z</time>
      </trkpt>
      <trkpt lat="45.10391" lon="3.47838">
        <ele>637.01</ele>
        <time>2021-01-17T14:05:18Z</time>
      </trkpt>
      <trkpt lat="45.10398" lon="3.47861">
        <ele>644.22</ele>
        <time>2021-01-17T14:05:34Z</time>
      </trkpt>
      <trkpt lat="45.10409" lon="3.4788">
        <ele>639.41</ele>
        <time>2021-01-17T14:05:51Z</time>
      </trkpt>
      <trkpt lat="45.10411" lon="3.47907">
        <ele>639.89</ele>
        <time>2021-01-17T14:06:08Z</time>
      </trkpt>
      <trkpt lat="45.10411" lon="3.47912">
        <ele>639.41</ele>
        <time>2021-01-17T14:06:11Z</time>
      </trkpt>
      <trkpt lat="45.10418" lon="3.47938">
        <ele>635.57</ele>
        <time>2021-01-17T14:06:29Z</time>
      </trkpt>
      <trkpt lat="45.10426" lon="3.47963">
        <ele>631.24</ele>
        <time>2021-01-17T14:06:46Z</time>
      </trkpt>
      <trkpt lat="45.10439" lon="3.47982">
        <ele>627.4</ele>
        <time>2021-01-17T14:07:02Z</time>
      </trkpt>
      <trkpt lat="45.10454" lon="3.48">
        <ele>623.55</ele>
        <time>2021-01-17T14:07:21Z</time>
      </trkpt>
      <trkpt lat="45.10474" lon="3.48014">
        <ele>617.3</ele>
        <time>2021-01-17T14:07:42Z</time>
      </trkpt>
      <trkpt lat="45.10484" lon="3.48019">
        <ele>613.94</ele>
        <time>2021-01-17T14:07:52Z</time>
      </trkpt>
      <trkpt lat="45.10496" lon="3.4803">
        <ele>624.51</ele>
        <time>2021-01-17T14:08:08Z</time>
      </trkpt>
      <trkpt lat="45.10502" lon="3.48025">
        <ele>623.55</ele>
        <time>2021-01-17T14:08:24Z</time>
      </trkpt>
      <trkpt lat="45.10517" lon="3.47999">
        <ele>624.51</ele>
        <time>2021-01-17T14:08:49Z</time>
      </trkpt>
      <trkpt lat="45.10541" lon="3.48007">
        <ele>622.59</ele>
        <time>2021-01-17T14:09:09Z</time>
      </trkpt>
      <trkpt lat="45.10557" lon="3.48024">
        <ele>617.3</ele>
        <time>2021-01-17T14:09:28Z</time>
      </trkpt>
      <trkpt lat="45.10573" lon="3.48042">
        <ele>612.98</ele>
        <time>2021-01-17T14:09:46Z</time>
      </trkpt>
      <trkpt lat="45.10589" lon="3.4806">
        <ele>613.94</ele>
        <time>2021-01-17T14:10:04Z</time>
      </trkpt>
      <trkpt lat="45.10606" lon="3.4807">
        <ele>612.5</ele>
        <time>2021-01-17T14:10:21Z</time>
      </trkpt>
      <trkpt lat="45.1062" lon="3.48073">
        <ele>612.02</ele>
        <time>2021-01-17T14:10:32Z</time>
      </trkpt>
      <trkpt lat="45.10634" lon="3.48074">
        <ele>612.98</ele>
        <time>2021-01-17T14:10:45Z</time>
      </trkpt>
      <trkpt lat="45.10653" lon="3.48074">
        <ele>611.06</ele>
        <time>2021-01-17T14:11:01Z</time>
      </trkpt>
      <trkpt lat="45.10669" lon="3.48077">
        <ele>608.17</ele>
        <time>2021-01-17T14:11:17Z</time>
      </trkpt>
      <trkpt lat="45.10687" lon="3.48082">
        <ele>605.77</ele>
        <time>2021-01-17T14:11:32Z</time>
      </trkpt>
      <trkpt lat="45.10694" lon="3.48084">
        <ele>603.85</ele>
        <time>2021-01-17T14:11:48Z</time>
      </trkpt>
      <trkpt lat="45.10712" lon="3.48092">
        <ele>587.4</ele>
      </trkpt>
      <trkpt lat="45.1073" lon="3.48102">
        <ele>583.3</ele>
      </trkpt>
      <trkpt lat="45.10738" lon="3.48115">
        <ele>580.9</ele>
      </trkpt>
      <trkpt lat="45.10737" lon="3.48137">
        <ele>579.4</ele>
      </trkpt>
      <trkpt lat="45.10733" lon="3.48151">
        <ele>578.8</ele>
      </trkpt>
      <trkpt lat="45.10707" lon="3.48156">
        <ele>580.8</ele>
      </trkpt>
      <trkpt lat="45.10693" lon="3.48164">
        <ele>581.1</ele>
      </trkpt>
      <trkpt lat="45.10674" lon="3.48171">
        <ele>582.1</ele>
      </trkpt>
      <trkpt lat="45.10657" lon="3.48185">
        <ele>581.1</ele>
      </trkpt>
      <trkpt lat="45.10653" lon="3.48201">
        <ele>579.3</ele>
      </trkpt>
      <trkpt lat="45.10655" lon="3.48207">
        <ele>586.54</ele>
        <time>2021-01-17T14:25:54Z</time>
      </trkpt>
      <trkpt lat="45.10655" lon="3.48211">
        <ele>586.06</ele>
        <time>2021-01-17T14:26:13Z</time>
      </trkpt>
      <trkpt lat="45.10656" lon="3.48214">
        <ele>586.06</ele>
        <time>2021-01-17T14:26:18Z</time>
      </trkpt>
      <trkpt lat="45.10658" lon="3.48235">
        <ele>583.18</ele>
        <time>2021-01-17T14:26:32Z</time>
      </trkpt>
      <trkpt lat="45.10659" lon="3.48241">
        <ele>581.73</ele>
        <time>2021-01-17T14:26:37Z</time>
      </trkpt>
      <trkpt lat="45.10663" lon="3.48257">
        <ele>579.81</ele>
        <time>2021-01-17T14:26:50Z</time>
      </trkpt>
      <trkpt lat="45.10665" lon="3.48265">
        <ele>580.29</ele>
        <time>2021-01-17T14:27:05Z</time>
      </trkpt>
      <trkpt lat="45.10667" lon="3.48274">
        <ele>579.81</ele>
        <time>2021-01-17T14:27:19Z</time>
      </trkpt>
      <trkpt lat="45.10667" lon="3.48275">
        <ele>579.81</ele>
        <time>2021-01-17T14:27:28Z</time>
      </trkpt>
      <trkpt lat="45.10669" lon="3.48283">
        <ele>579.33</ele>
        <time>2021-01-17T14:27:43Z</time>
      </trkpt>
      <trkpt lat="45.10673" lon="3.48299">
        <ele>579.33</ele>
        <time>2021-01-17T14:27:54Z</time>
      </trkpt>
      <trkpt lat="45.10673" lon="3.48303">
        <ele>579.81</ele>
        <time>2021-01-17T14:28:10Z</time>
      </trkpt>
      <trkpt lat="45.10675" lon="3.48316">
        <ele>578.85</ele>
        <time>2021-01-17T14:28:24Z</time>
      </trkpt>
      <trkpt lat="45.10679" lon="3.48331">
        <ele>577.41</ele>
        <time>2021-01-17T14:28:38Z</time>
      </trkpt>
      <trkpt lat="45.10683" lon="3.4835">
        <ele>576.93</ele>
        <time>2021-01-17T14:28:52Z</time>
      </trkpt>
      <trkpt lat="45.10681" lon="3.48369">
        <ele>576.45</ele>
        <time>2021-01-17T14:29:05Z</time>
      </trkpt>
      <trkpt lat="45.10679" lon="3.48384">
        <ele>575.49</ele>
        <time>2021-01-17T14:29:18Z</time>
      </trkpt>
      <trkpt lat="45.10679" lon="3.4839">
        <ele>574.53</ele>
        <time>2021-01-17T14:29:21Z</time>
      </trkpt>
      <trkpt lat="45.10683" lon="3.48402">
        <ele>572.12</ele>
        <time>2021-01-17T14:29:30Z</time>
      </trkpt>
      <trkpt lat="45.10683" lon="3.48409">
        <ele>571.16</ele>
        <time>2021-01-17T14:29:37Z</time>
      </trkpt>
      <trkpt lat="45.10681" lon="3.48417">
        <ele>571.16</ele>
        <time>2021-01-17T14:29:43Z</time>
      </trkpt>
      <trkpt lat="45.10681" lon="3.48426">
        <ele>569.72</ele>
        <time>2021-01-17T14:29:48Z</time>
      </trkpt>
      <trkpt lat="45.10676" lon="3.48451">
        <ele>566.35</ele>
        <time>2021-01-17T14:30:03Z</time>
      </trkpt>
      <trkpt lat="45.10667" lon="3.4847">
        <ele>564.43</ele>
        <time>2021-01-17T14:30:20Z</time>
      </trkpt>
      <trkpt lat="45.10656" lon="3.48488">
        <ele>562.51</ele>
        <time>2021-01-17T14:30:35Z</time>
      </trkpt>
      <trkpt lat="45.10654" lon="3.4849">
        <ele>561.55</ele>
        <time>2021-01-17T14:30:38Z</time>
      </trkpt>
      <trkpt lat="45.10642" lon="3.48498">
        <ele>559.62</ele>
        <time>2021-01-17T14:30:52Z</time>
      </trkpt>
      <trkpt lat="45.10637" lon="3.48499">
        <ele>558.18</ele>
        <time>2021-01-17T14:30:57Z</time>
      </trkpt>
      <trkpt lat="45.10623" lon="3.48505">
        <ele>554.34</ele>
        <time>2021-01-17T14:31:12Z</time>
      </trkpt>
      <trkpt lat="45.10617" lon="3.48509">
        <ele>551.45</ele>
        <time>2021-01-17T14:31:21Z</time>
      </trkpt>
      <trkpt lat="45.10603" lon="3.4851">
        <ele>549.05</ele>
        <time>2021-01-17T14:31:35Z</time>
      </trkpt>
      <trkpt lat="45.10593" lon="3.48507">
        <ele>546.65</ele>
        <time>2021-01-17T14:31:48Z</time>
      </trkpt>
      <trkpt lat="45.10586" lon="3.48504">
        <ele>545.69</ele>
        <time>2021-01-17T14:31:54Z</time>
      </trkpt>
      <trkpt lat="45.10573" lon="3.48504">
        <ele>541.36</ele>
        <time>2021-01-17T14:32:08Z</time>
      </trkpt>
      <trkpt lat="45.10557" lon="3.4851">
        <ele>538.96</ele>
        <time>2021-01-17T14:32:25Z</time>
      </trkpt>
      <trkpt lat="45.10545" lon="3.48512">
        <ele>538.96</ele>
        <time>2021-01-17T14:32:36Z</time>
      </trkpt>
      <trkpt lat="45.10544" lon="3.48512">
        <ele>538.48</ele>
        <time>2021-01-17T14:32:37Z</time>
      </trkpt>
      <trkpt lat="45.10528" lon="3.4852">
        <ele>537.99</ele>
        <time>2021-01-17T14:32:49Z</time>
      </trkpt>
      <trkpt lat="45.10518" lon="3.48525">
        <ele>534.63</ele>
        <time>2021-01-17T14:32:58Z</time>
      </trkpt>
      <trkpt lat="45.1051" lon="3.48529">
        <ele>531.75</ele>
        <time>2021-01-17T14:33:06Z</time>
      </trkpt>
      <trkpt lat="45.1051" lon="3.48529">
        <ele>531.27</ele>
        <time>2021-01-17T14:33:08Z</time>
      </trkpt>
      <trkpt lat="45.10505" lon="3.48533">
        <ele>530.79</ele>
        <time>2021-01-17T14:33:13Z</time>
      </trkpt>
      <trkpt lat="45.10495" lon="3.48542">
        <ele>529.34</ele>
        <time>2021-01-17T14:33:22Z</time>
      </trkpt>
      <trkpt lat="45.10491" lon="3.48549">
        <ele>527.9</ele>
        <time>2021-01-17T14:33:30Z</time>
      </trkpt>
      <trkpt lat="45.10493" lon="3.48548">
        <ele>527.42</ele>
        <time>2021-01-17T14:33:56Z</time>
      </trkpt>
      <trkpt lat="45.10489" lon="3.48568">
        <ele>526.46</ele>
        <time>2021-01-17T14:34:10Z</time>
      </trkpt>
      <trkpt lat="45.10487" lon="3.48575">
        <ele>527.42</ele>
        <time>2021-01-17T14:34:15Z</time>
      </trkpt>
      <trkpt lat="45.10486" lon="3.48588">
        <ele>527.42</ele>
        <time>2021-01-17T14:34:23Z</time>
      </trkpt>
      <trkpt lat="45.10484" lon="3.48596">
        <ele>526.46</ele>
        <time>2021-01-17T14:34:29Z</time>
      </trkpt>
      <trkpt lat="45.10481" lon="3.48606">
        <ele>525.5</ele>
        <time>2021-01-17T14:34:39Z</time>
      </trkpt>
      <trkpt lat="45.1048" lon="3.48609">
        <ele>524.54</ele>
        <time>2021-01-17T14:34:54Z</time>
      </trkpt>
      <trkpt lat="45.10481" lon="3.48616">
        <ele>525.02</ele>
        <time>2021-01-17T14:35:06Z</time>
      </trkpt>
      <trkpt lat="45.10481" lon="3.48616">
        <ele>525.02</ele>
        <time>2021-01-17T14:35:23Z</time>
      </trkpt>
      <trkpt lat="45.1048" lon="3.48621">
        <ele>525.02</ele>
        <time>2021-01-17T14:35:39Z</time>
      </trkpt>
      <trkpt lat="45.10475" lon="3.48648">
        <ele>524.06</ele>
        <time>2021-01-17T14:35:55Z</time>
      </trkpt>
      <trkpt lat="45.10474" lon="3.48669">
        <ele>524.06</ele>
        <time>2021-01-17T14:36:09Z</time>
      </trkpt>
      <trkpt lat="45.10471" lon="3.48693">
        <ele>523.58</ele>
        <time>2021-01-17T14:36:24Z</time>
      </trkpt>
      <trkpt lat="45.10468" lon="3.48699">
        <ele>523.58</ele>
        <time>2021-01-17T14:36:29Z</time>
      </trkpt>
      <trkpt lat="45.10467" lon="3.48712">
        <ele>523.58</ele>
        <time>2021-01-17T14:36:41Z</time>
      </trkpt>
      <trkpt lat="45.10465" lon="3.48725">
        <ele>523.58</ele>
        <time>2021-01-17T14:36:51Z</time>
      </trkpt>
      <trkpt lat="45.10464" lon="3.48733">
        <ele>523.09</ele>
        <time>2021-01-17T14:36:57Z</time>
      </trkpt>
      <trkpt lat="45.10462" lon="3.48748">
        <ele>523.09</ele>
        <time>2021-01-17T14:37:14Z</time>
      </trkpt>
      <trkpt lat="45.10461" lon="3.48772">
        <ele>522.61</ele>
        <time>2021-01-17T14:37:28Z</time>
      </trkpt>
      <trkpt lat="45.10459" lon="3.48807">
        <ele>521.65</ele>
        <time>2021-01-17T14:37:48Z</time>
      </trkpt>
      <trkpt lat="45.10459" lon="3.4884">
        <ele>516.37</ele>
        <time>2021-01-17T14:38:07Z</time>
      </trkpt>
      <trkpt lat="45.10466" lon="3.48869">
        <ele>513.48</ele>
        <time>2021-01-17T14:38:25Z</time>
      </trkpt>
      <trkpt lat="45.10471" lon="3.48879">
        <ele>513.48</ele>
        <time>2021-01-17T14:38:41Z</time>
      </trkpt>
      <trkpt lat="45.10484" lon="3.48894">
        <ele>514.44</ele>
        <time>2021-01-17T14:38:58Z</time>
      </trkpt>
      <trkpt lat="45.105" lon="3.48909">
        <ele>515.4</ele>
        <time>2021-01-17T14:39:16Z</time>
      </trkpt>
      <trkpt lat="45.10501" lon="3.4891">
        <ele>515.4</ele>
        <time>2021-01-17T14:39:20Z</time>
      </trkpt>
      <trkpt lat="45.10518" lon="3.48909">
        <ele>514.44</ele>
        <time>2021-01-17T14:39:36Z</time>
      </trkpt>
      <trkpt lat="45.10545" lon="3.48901">
        <ele>513.48</ele>
        <time>2021-01-17T14:39:56Z</time>
      </trkpt>
      <trkpt lat="45.10566" lon="3.48895">
        <ele>513.96</ele>
        <time>2021-01-17T14:40:12Z</time>
      </trkpt>
      <trkpt lat="45.10584" lon="3.4889">
        <ele>512.52</ele>
        <time>2021-01-17T14:40:27Z</time>
      </trkpt>
      <trkpt lat="45.10601" lon="3.48895">
        <ele>511.56</ele>
        <time>2021-01-17T14:40:45Z</time>
      </trkpt>
      <trkpt lat="45.10603" lon="3.48906">
        <ele>511.56</ele>
        <time>2021-01-17T14:40:52Z</time>
      </trkpt>
      <trkpt lat="45.10597" lon="3.48923">
        <ele>509.16</ele>
        <time>2021-01-17T14:41:02Z</time>
      </trkpt>
      <trkpt lat="45.10591" lon="3.48931">
        <ele>511.08</ele>
        <time>2021-01-17T14:41:09Z</time>
      </trkpt>
      <trkpt lat="45.1057" lon="3.48945">
        <ele>513</ele>
        <time>2021-01-17T14:41:30Z</time>
      </trkpt>
      <trkpt lat="45.10555" lon="3.48953">
        <ele>512.52</ele>
        <time>2021-01-17T14:41:47Z</time>
      </trkpt>
      <trkpt lat="45.10546" lon="3.48958">
        <ele>512.52</ele>
        <time>2021-01-17T14:42:00Z</time>
      </trkpt>
      <trkpt lat="45.10542" lon="3.48962">
        <ele>513.48</ele>
        <time>2021-01-17T14:42:10Z</time>
      </trkpt>
      <trkpt lat="45.10543" lon="3.48955">
        <ele>513.96</ele>
        <time>2021-01-17T14:42:20Z</time>
      </trkpt>
      <trkpt lat="45.10547" lon="3.48951">
        <ele>524.54</ele>
        <time>2021-01-17T14:42:38Z</time>
      </trkpt>
    </trkseg>
  </trk>
</gpx>